AFR56T LFPG-KLAS
Flight info
| Callsign | AFR56T |
|---|---|
| Flight time | N/A |
| Altitude | 36000 |
| Route | ELCOB UT300 RUBIX DCT SENLO DCT JSY DCT LIZAD DCT NAKID DCT EVCOR DCT LEDGO DCT PIKIL/M084F380 NATA URTAK/N0497F400 DCT MCKEE DCT PIGLA DCT OMEVA DCT 50N098W DCT MOT DCT SWTHN DCT BOY DCT MLF DCT STEWW CHOWW4 |
| Aircraft | A359/H-SDE2E3GHIJ3J4J5LM1ORWXY/LB1D1 |
Departure
| Time | N/A |
|---|---|
| Airport | Charles de Gaulle International Airport (LFPG) |
Arrival
| Time | 2026-05-06 21:58 |
|---|---|
| Airport | Harry Reid International Airport (KLAS) |
| Time | Latitude | Longitude | Altitude | Speed | Heading |
|---|---|---|---|---|---|
| 2026-05-06 12:41 | 50.69839 | -6.60817 | 36042 ft | 472 kts | 306° |
| 2026-05-06 12:41 | 50.73786 | -6.69111 | 36034 ft | 472 kts | 306° |
| 2026-05-06 12:42 | 50.77728 | -6.77418 | 36045 ft | 472 kts | 306° |
| 2026-05-06 12:42 | 50.81665 | -6.85742 | 36033 ft | 472 kts | 306° |
| 2026-05-06 12:43 | 50.85595 | -6.94077 | 36034 ft | 473 kts | 306° |
| 2026-05-06 12:43 | 50.89523 | -7.02436 | 36044 ft | 473 kts | 306° |
| 2026-05-06 12:44 | 50.93525 | -7.10704 | 36046 ft | 474 kts | 311° |
| 2026-05-06 12:44 | 50.98159 | -7.18051 | 36039 ft | 474 kts | 315° |
| 2026-05-06 12:45 | 51.02964 | -7.25242 | 36046 ft | 475 kts | 316° |
| 2026-05-06 12:46 | 51.10196 | -7.36001 | 36038 ft | 474 kts | 316° |
| 2026-05-06 12:46 | 51.15001 | -7.43203 | 36040 ft | 474 kts | 315° |
| 2026-05-06 12:47 | 51.19792 | -7.50419 | 36038 ft | 474 kts | 315° |
| 2026-05-06 12:47 | 51.24576 | -7.57646 | 36041 ft | 474 kts | 315° |
| 2026-05-06 12:48 | 51.29557 | -7.64543 | 36037 ft | 474 kts | 319° |
| 2026-05-06 12:48 | 51.34674 | -7.71203 | 36035 ft | 473 kts | 320° |
| 2026-05-06 12:49 | 51.39762 | -7.77909 | 36035 ft | 473 kts | 319° |
| 2026-05-06 12:49 | 51.44806 | -7.84678 | 36031 ft | 473 kts | 319° |
| 2026-05-06 12:50 | 51.49837 | -7.91484 | 36031 ft | 472 kts | 319° |
| 2026-05-06 12:50 | 51.54852 | -7.98292 | 36025 ft | 472 kts | 319° |
| 2026-05-06 12:51 | 51.59859 | -8.05104 | 36023 ft | 471 kts | 319° |
| 2026-05-06 12:51 | 51.64859 | -8.11925 | 36021 ft | 471 kts | 319° |
| 2026-05-06 12:52 | 51.69821 | -8.18713 | 36019 ft | 471 kts | 319° |
| 2026-05-06 12:52 | 51.74816 | -8.25569 | 36019 ft | 471 kts | 319° |
| 2026-05-06 12:53 | 51.79806 | -8.32437 | 36022 ft | 471 kts | 319° |
| 2026-05-06 12:53 | 51.84793 | -8.39321 | 36022 ft | 471 kts | 319° |
| 2026-05-06 12:54 | 51.89775 | -8.46221 | 36022 ft | 471 kts | 319° |
| 2026-05-06 12:54 | 51.94757 | -8.53141 | 36020 ft | 471 kts | 319° |
| 2026-05-06 12:55 | 51.99724 | -8.60061 | 36017 ft | 471 kts | 319° |
| 2026-05-06 12:55 | 52.04666 | -8.66968 | 36015 ft | 471 kts | 319° |
| 2026-05-06 12:56 | 52.09626 | -8.73920 | 36008 ft | 470 kts | 319° |
| 2026-05-06 12:56 | 52.14576 | -8.80879 | 36005 ft | 470 kts | 319° |
| 2026-05-06 12:57 | 52.19524 | -8.87856 | 36004 ft | 470 kts | 319° |
| 2026-05-06 12:57 | 52.24462 | -8.94842 | 36007 ft | 470 kts | 319° |
| 2026-05-06 12:58 | 52.28565 | -9.00661 | 36009 ft | 470 kts | 319° |
| 2026-05-06 12:58 | 52.34296 | -9.08815 | 36011 ft | 469 kts | 319° |
| 2026-05-06 12:59 | 52.38422 | -9.14704 | 36009 ft | 469 kts | 319° |
| 2026-05-06 12:59 | 52.43304 | -9.21692 | 36010 ft | 469 kts | 319° |
| 2026-05-06 13:00 | 52.48215 | -9.28742 | 36009 ft | 469 kts | 319° |
| 2026-05-06 13:00 | 52.53116 | -9.35801 | 36014 ft | 468 kts | 319° |
| 2026-05-06 13:01 | 52.58015 | -9.42878 | 36013 ft | 468 kts | 319° |
| 2026-05-06 13:01 | 52.62902 | -9.49960 | 36021 ft | 467 kts | 319° |
| 2026-05-06 13:02 | 52.67775 | -9.57042 | 36024 ft | 467 kts | 319° |
| 2026-05-06 13:02 | 52.72642 | -9.64137 | 36025 ft | 467 kts | 319° |
| 2026-05-06 13:03 | 52.77465 | -9.71192 | 36029 ft | 466 kts | 319° |
| 2026-05-06 13:03 | 52.82313 | -9.78304 | 36033 ft | 465 kts | 319° |
| 2026-05-06 13:04 | 52.87145 | -9.85414 | 36035 ft | 464 kts | 319° |
| 2026-05-06 13:04 | 52.91970 | -9.92538 | 36040 ft | 464 kts | 319° |
| 2026-05-06 13:05 | 52.96775 | -9.99652 | 36041 ft | 463 kts | 319° |
| 2026-05-06 13:05 | 53.01569 | -10.06774 | 36039 ft | 462 kts | 319° |
| 2026-05-06 13:06 | 53.06350 | -10.13897 | 36041 ft | 461 kts | 319° |
| 2026-05-06 13:06 | 53.11123 | -10.21033 | 36045 ft | 461 kts | 319° |
| 2026-05-06 13:07 | 53.15883 | -10.28168 | 36041 ft | 460 kts | 319° |
| 2026-05-06 13:07 | 53.20600 | -10.35262 | 36042 ft | 459 kts | 319° |
| 2026-05-06 13:08 | 53.25339 | -10.42412 | 36040 ft | 459 kts | 319° |
| 2026-05-06 13:08 | 53.30066 | -10.49567 | 36041 ft | 458 kts | 319° |
| 2026-05-06 13:09 | 53.34789 | -10.56736 | 36042 ft | 458 kts | 319° |
| 2026-05-06 13:09 | 53.39476 | -10.63873 | 36040 ft | 457 kts | 319° |
| 2026-05-06 13:10 | 53.44178 | -10.71056 | 36038 ft | 457 kts | 319° |
| 2026-05-06 13:10 | 53.48868 | -10.78244 | 36040 ft | 457 kts | 319° |
| 2026-05-06 13:11 | 53.53560 | -10.85455 | 36041 ft | 456 kts | 319° |
| 2026-05-06 13:11 | 53.58237 | -10.92668 | 36041 ft | 455 kts | 319° |
| 2026-05-06 13:12 | 53.62877 | -10.99845 | 36043 ft | 455 kts | 319° |
| 2026-05-06 13:12 | 53.67533 | -11.07070 | 36039 ft | 454 kts | 318° |
| 2026-05-06 13:13 | 53.72177 | -11.14299 | 36041 ft | 454 kts | 318° |
| 2026-05-06 13:13 | 53.76822 | -11.21552 | 36039 ft | 454 kts | 318° |
| 2026-05-06 13:14 | 53.81448 | -11.28798 | 36039 ft | 453 kts | 318° |
| 2026-05-06 13:14 | 53.86076 | -11.36070 | 36040 ft | 453 kts | 318° |
| 2026-05-06 13:15 | 53.90691 | -11.43345 | 36034 ft | 453 kts | 318° |
| 2026-05-06 13:15 | 53.95300 | -11.50633 | 36035 ft | 453 kts | 318° |
| 2026-05-06 13:16 | 53.99902 | -11.57933 | 36031 ft | 452 kts | 317° |
| 2026-05-06 13:16 | 54.04497 | -11.65247 | 36033 ft | 452 kts | 317° |
| 2026-05-06 13:17 | 54.09054 | -11.72522 | 36033 ft | 452 kts | 317° |
| 2026-05-06 13:17 | 54.13633 | -11.79855 | 36034 ft | 451 kts | 317° |
| 2026-05-06 13:18 | 54.18199 | -11.87190 | 36030 ft | 451 kts | 317° |
| 2026-05-06 13:18 | 54.22760 | -11.94542 | 36028 ft | 450 kts | 317° |
| 2026-05-06 13:19 | 54.27316 | -12.01907 | 36027 ft | 450 kts | 317° |
| 2026-05-06 13:19 | 54.31861 | -12.09281 | 36024 ft | 449 kts | 317° |
| 2026-05-06 13:20 | 54.36367 | -12.16614 | 36020 ft | 449 kts | 317° |
| 2026-05-06 13:20 | 54.40890 | -12.23997 | 36020 ft | 449 kts | 317° |
| 2026-05-06 13:21 | 54.45404 | -12.31390 | 36019 ft | 448 kts | 316° |
| 2026-05-06 13:21 | 54.49910 | -12.38792 | 36018 ft | 448 kts | 316° |
| 2026-05-06 13:22 | 54.54408 | -12.46206 | 36019 ft | 447 kts | 316° |
| 2026-05-06 13:22 | 54.58895 | -12.53625 | 36018 ft | 447 kts | 316° |
| 2026-05-06 13:23 | 54.63379 | -12.61063 | 36017 ft | 446 kts | 316° |
| 2026-05-06 13:23 | 54.67849 | -12.68503 | 36013 ft | 446 kts | 316° |
| 2026-05-06 13:24 | 54.72311 | -12.75952 | 36014 ft | 445 kts | 316° |
| 2026-05-06 13:24 | 54.76766 | -12.83414 | 36014 ft | 445 kts | 316° |
| 2026-05-06 13:25 | 54.81181 | -12.90833 | 36012 ft | 445 kts | 315° |
| 2026-05-06 13:25 | 54.85619 | -12.98314 | 36014 ft | 445 kts | 315° |
| 2026-05-06 13:26 | 54.90055 | -13.05817 | 36012 ft | 445 kts | 315° |
| 2026-05-06 13:26 | 54.94486 | -13.13336 | 36008 ft | 445 kts | 315° |
| 2026-05-06 13:27 | 54.98917 | -13.20878 | 36007 ft | 445 kts | 315° |
| 2026-05-06 13:27 | 55.03338 | -13.28429 | 36008 ft | 445 kts | 315° |
| 2026-05-06 13:28 | 55.07756 | -13.35999 | 36004 ft | 445 kts | 315° |
| 2026-05-06 13:28 | 55.12170 | -13.43588 | 36003 ft | 445 kts | 315° |
| 2026-05-06 13:29 | 55.16546 | -13.51136 | 36002 ft | 444 kts | 314° |
| 2026-05-06 13:29 | 55.20941 | -13.58741 | 35998 ft | 444 kts | 314° |
| 2026-05-06 13:30 | 55.25331 | -13.66362 | 36000 ft | 444 kts | 314° |
| 2026-05-06 13:30 | 55.29714 | -13.73995 | 35996 ft | 444 kts | 314° |
| 2026-05-06 13:31 | 55.34090 | -13.81640 | 35994 ft | 444 kts | 314° |
| 2026-05-06 13:31 | 55.38462 | -13.89306 | 35995 ft | 443 kts | 314° |
| 2026-05-06 13:32 | 55.42825 | -13.96979 | 35990 ft | 443 kts | 314° |
| 2026-05-06 13:32 | 55.47178 | -14.04662 | 35987 ft | 443 kts | 314° |
| 2026-05-06 13:33 | 55.51527 | -14.12363 | 35986 ft | 443 kts | 314° |
| 2026-05-06 13:33 | 55.55869 | -14.20077 | 35985 ft | 443 kts | 314° |
| 2026-05-06 13:34 | 55.60174 | -14.27751 | 35982 ft | 442 kts | 314° |
| 2026-05-06 13:34 | 55.64506 | -14.35498 | 35979 ft | 442 kts | 313° |
| 2026-05-06 13:35 | 55.68832 | -14.43260 | 35981 ft | 442 kts | 313° |
| 2026-05-06 13:35 | 55.73145 | -14.51026 | 35976 ft | 442 kts | 313° |
| 2026-05-06 13:36 | 55.77450 | -14.58804 | 35970 ft | 441 kts | 313° |
| 2026-05-06 13:36 | 55.81753 | -14.66602 | 35969 ft | 441 kts | 313° |
| 2026-05-06 13:37 | 55.86042 | -14.74403 | 35966 ft | 441 kts | 313° |
| 2026-05-06 13:37 | 55.90330 | -14.82228 | 35964 ft | 441 kts | 313° |
| 2026-05-06 13:38 | 55.94602 | -14.90050 | 35960 ft | 440 kts | 313° |
| 2026-05-06 13:38 | 55.98483 | -14.98380 | 36010 ft | 440 kts | 301° |
| 2026-05-06 13:38 | 55.99946 | -15.03252 | 36209 ft | 440 kts | 294° |
| 2026-05-06 13:39 | 56.00959 | -15.08325 | 36418 ft | 440 kts | 285° |
| 2026-05-06 13:39 | 56.01716 | -15.13637 | 36597 ft | 441 kts | 284° |
| 2026-05-06 13:39 | 56.02390 | -15.18997 | 36791 ft | 442 kts | 283° |
| 2026-05-06 13:39 | 56.03024 | -15.24385 | 36965 ft | 443 kts | 282° |
| 2026-05-06 13:40 | 56.03643 | -15.29781 | 37145 ft | 443 kts | 282° |
| 2026-05-06 13:40 | 56.04261 | -15.35178 | 37328 ft | 444 kts | 282° |
| 2026-05-06 13:40 | 56.04884 | -15.40583 | 37500 ft | 444 kts | 282° |
| 2026-05-06 13:40 | 56.05514 | -15.45999 | 37669 ft | 445 kts | 282° |
| 2026-05-06 13:41 | 56.06146 | -15.51417 | 37829 ft | 445 kts | 282° |
| 2026-05-06 13:41 | 56.06780 | -15.56845 | 37937 ft | 447 kts | 282° |
| 2026-05-06 13:41 | 56.07417 | -15.62306 | 37941 ft | 450 kts | 282° |
| 2026-05-06 13:42 | 56.08691 | -15.73304 | 37945 ft | 450 kts | 282° |
| 2026-05-06 13:42 | 56.09952 | -15.84291 | 37943 ft | 450 kts | 282° |
| 2026-05-06 13:43 | 56.11194 | -15.95204 | 37939 ft | 450 kts | 282° |
| 2026-05-06 13:43 | 56.12434 | -16.06193 | 37939 ft | 450 kts | 282° |
| 2026-05-06 13:44 | 56.13664 | -16.17191 | 37933 ft | 450 kts | 282° |
| 2026-05-06 13:44 | 56.14884 | -16.28190 | 37934 ft | 450 kts | 282° |
| 2026-05-06 13:45 | 56.16094 | -16.39194 | 37928 ft | 450 kts | 281° |
| 2026-05-06 13:45 | 56.17890 | -16.55713 | 37927 ft | 449 kts | 281° |
| 2026-05-06 13:46 | 56.18877 | -16.64881 | 37925 ft | 449 kts | 281° |
| 2026-05-06 13:46 | 56.20053 | -16.75900 | 37919 ft | 449 kts | 281° |
| 2026-05-06 13:47 | 56.21220 | -16.86925 | 37924 ft | 449 kts | 281° |
| 2026-05-06 13:47 | 56.22377 | -16.97954 | 37920 ft | 449 kts | 281° |
| 2026-05-06 13:48 | 56.23523 | -17.08992 | 37915 ft | 449 kts | 281° |
| 2026-05-06 13:48 | 56.24661 | -17.20039 | 37916 ft | 449 kts | 281° |
| 2026-05-06 13:49 | 56.25788 | -17.31088 | 37914 ft | 449 kts | 281° |
| 2026-05-06 13:49 | 56.26904 | -17.42138 | 37914 ft | 449 kts | 280° |
| 2026-05-06 13:50 | 56.28004 | -17.53124 | 37913 ft | 449 kts | 280° |
| 2026-05-06 13:50 | 56.29101 | -17.64192 | 37909 ft | 449 kts | 280° |
| 2026-05-06 13:51 | 56.30189 | -17.75270 | 37909 ft | 449 kts | 280° |
| 2026-05-06 13:51 | 56.31268 | -17.86361 | 37908 ft | 449 kts | 280° |
| 2026-05-06 13:52 | 56.32337 | -17.97455 | 37904 ft | 449 kts | 280° |
| 2026-05-06 13:52 | 56.33395 | -18.08554 | 37903 ft | 449 kts | 279° |
| 2026-05-06 13:53 | 56.34444 | -18.19668 | 37904 ft | 449 kts | 279° |
| 2026-05-06 13:53 | 56.35483 | -18.30777 | 37902 ft | 449 kts | 279° |
| 2026-05-06 13:54 | 56.36505 | -18.41823 | 37901 ft | 450 kts | 279° |
| 2026-05-06 13:54 | 56.37526 | -18.52973 | 37902 ft | 450 kts | 279° |
| 2026-05-06 13:55 | 56.38536 | -18.64108 | 37903 ft | 450 kts | 279° |
| 2026-05-06 13:55 | 56.39536 | -18.75258 | 37904 ft | 450 kts | 279° |
| 2026-05-06 13:56 | 56.40525 | -18.86407 | 37903 ft | 450 kts | 279° |
| 2026-05-06 13:56 | 56.41506 | -18.97578 | 37904 ft | 450 kts | 279° |
| 2026-05-06 13:57 | 56.42476 | -19.08750 | 37904 ft | 450 kts | 278° |
| 2026-05-06 13:57 | 56.43432 | -19.19869 | 37905 ft | 450 kts | 278° |
| 2026-05-06 13:58 | 56.44382 | -19.31048 | 37909 ft | 451 kts | 278° |
| 2026-05-06 13:58 | 56.45325 | -19.42271 | 37911 ft | 451 kts | 278° |
| 2026-05-06 13:59 | 56.46257 | -19.53490 | 37910 ft | 451 kts | 278° |
| 2026-05-06 13:59 | 56.47179 | -19.64703 | 37911 ft | 451 kts | 278° |
| 2026-05-06 14:00 | 56.48084 | -19.75846 | 37916 ft | 451 kts | 278° |
| 2026-05-06 14:00 | 56.48986 | -19.87088 | 37917 ft | 451 kts | 278° |
| 2026-05-06 14:01 | 56.49905 | -19.98323 | 37913 ft | 451 kts | 280° |
| 2026-05-06 14:01 | 56.51339 | -20.09382 | 37919 ft | 451 kts | 283° |
| 2026-05-06 14:02 | 56.52897 | -20.20401 | 37922 ft | 452 kts | 284° |
| 2026-05-06 14:02 | 56.54467 | -20.31423 | 37918 ft | 452 kts | 284° |
| 2026-05-06 14:03 | 56.56023 | -20.42463 | 37919 ft | 452 kts | 283° |
| 2026-05-06 14:03 | 56.57562 | -20.53515 | 37921 ft | 452 kts | 283° |
| 2026-05-06 14:04 | 56.59093 | -20.64600 | 37923 ft | 453 kts | 283° |
| 2026-05-06 14:04 | 56.60614 | -20.75689 | 37921 ft | 453 kts | 283° |
| 2026-05-06 14:05 | 56.62126 | -20.86800 | 37928 ft | 453 kts | 283° |
| 2026-05-06 14:05 | 56.63629 | -20.97919 | 37929 ft | 453 kts | 283° |
| 2026-05-06 14:06 | 56.65123 | -21.09055 | 37928 ft | 454 kts | 283° |
| 2026-05-06 14:06 | 56.66597 | -21.20130 | 37933 ft | 454 kts | 283° |
| 2026-05-06 14:07 | 56.68073 | -21.31295 | 37934 ft | 454 kts | 283° |
| 2026-05-06 14:07 | 56.69540 | -21.42475 | 37937 ft | 454 kts | 283° |
| 2026-05-06 14:08 | 56.70998 | -21.53677 | 37936 ft | 455 kts | 282° |
| 2026-05-06 14:08 | 56.72445 | -21.64887 | 37937 ft | 455 kts | 282° |
| 2026-05-06 14:09 | 56.73884 | -21.76110 | 37944 ft | 455 kts | 282° |
| 2026-05-06 14:09 | 56.75311 | -21.87335 | 37943 ft | 455 kts | 282° |
| 2026-05-06 14:10 | 56.76732 | -21.98591 | 37947 ft | 455 kts | 282° |
| 2026-05-06 14:10 | 56.78141 | -22.09849 | 37952 ft | 456 kts | 282° |
| 2026-05-06 14:11 | 56.79542 | -22.21128 | 37951 ft | 456 kts | 282° |
| 2026-05-06 14:11 | 56.80932 | -22.32413 | 37952 ft | 456 kts | 282° |
| 2026-05-06 14:12 | 56.82304 | -22.43643 | 37955 ft | 456 kts | 282° |
| 2026-05-06 14:12 | 56.83676 | -22.54957 | 37955 ft | 456 kts | 282° |
| 2026-05-06 14:13 | 56.85038 | -22.66287 | 37960 ft | 456 kts | 282° |
| 2026-05-06 14:13 | 56.86389 | -22.77619 | 37965 ft | 456 kts | 282° |
| 2026-05-06 14:14 | 56.87731 | -22.88968 | 37965 ft | 457 kts | 282° |
| 2026-05-06 14:14 | 56.89063 | -23.00331 | 37967 ft | 457 kts | 281° |
| 2026-05-06 14:15 | 56.90387 | -23.11721 | 37969 ft | 457 kts | 281° |
| 2026-05-06 14:15 | 56.91699 | -23.23101 | 37972 ft | 458 kts | 281° |
| 2026-05-06 14:16 | 56.93004 | -23.34524 | 37975 ft | 458 kts | 281° |
| 2026-05-06 14:16 | 56.94298 | -23.45949 | 37980 ft | 458 kts | 281° |
| 2026-05-06 14:17 | 56.95574 | -23.57310 | 37981 ft | 458 kts | 281° |
| 2026-05-06 14:17 | 56.96849 | -23.68762 | 37984 ft | 459 kts | 281° |
| 2026-05-06 14:18 | 56.98114 | -23.80233 | 37991 ft | 459 kts | 281° |
| 2026-05-06 14:18 | 56.99369 | -23.91711 | 37994 ft | 459 kts | 281° |
| 2026-05-06 14:19 | 57.00615 | -24.03212 | 37995 ft | 460 kts | 281° |
| 2026-05-06 14:19 | 57.01851 | -24.14721 | 37997 ft | 460 kts | 281° |
| 2026-05-06 14:20 | 57.03077 | -24.26248 | 38003 ft | 460 kts | 281° |
| 2026-05-06 14:20 | 57.04293 | -24.37787 | 38006 ft | 460 kts | 280° |
| 2026-05-06 14:21 | 57.05499 | -24.49344 | 38013 ft | 461 kts | 280° |
| 2026-05-06 14:21 | 57.06695 | -24.60913 | 38017 ft | 461 kts | 280° |
| 2026-05-06 14:22 | 57.07882 | -24.72498 | 38015 ft | 461 kts | 280° |
| 2026-05-06 14:22 | 57.09057 | -24.84085 | 38025 ft | 461 kts | 280° |
| 2026-05-06 14:23 | 57.10215 | -24.95615 | 38028 ft | 462 kts | 280° |
| 2026-05-06 14:23 | 57.11371 | -25.07242 | 38032 ft | 462 kts | 280° |
| 2026-05-06 14:24 | 57.12516 | -25.18865 | 38036 ft | 462 kts | 280° |
| 2026-05-06 14:24 | 57.13653 | -25.30529 | 38040 ft | 463 kts | 280° |
| 2026-05-06 14:25 | 57.14778 | -25.42191 | 38042 ft | 463 kts | 280° |
| 2026-05-06 14:25 | 57.15894 | -25.53873 | 38049 ft | 463 kts | 279° |
| 2026-05-06 14:26 | 57.17001 | -25.65582 | 38050 ft | 464 kts | 279° |
| 2026-05-06 14:26 | 57.18096 | -25.77296 | 38056 ft | 464 kts | 279° |
| 2026-05-06 14:27 | 57.19182 | -25.89031 | 38056 ft | 464 kts | 279° |
| 2026-05-06 14:27 | 57.20258 | -26.00776 | 38062 ft | 464 kts | 279° |
| 2026-05-06 14:28 | 57.21322 | -26.12528 | 38068 ft | 465 kts | 279° |
| 2026-05-06 14:28 | 57.22370 | -26.24230 | 38069 ft | 465 kts | 279° |
| 2026-05-06 14:29 | 57.23414 | -26.36007 | 38072 ft | 465 kts | 279° |
| 2026-05-06 14:29 | 57.24448 | -26.47813 | 38078 ft | 466 kts | 279° |
| 2026-05-06 14:30 | 57.25471 | -26.59627 | 38081 ft | 466 kts | 279° |
| 2026-05-06 14:30 | 57.26485 | -26.71459 | 38086 ft | 466 kts | 279° |
| 2026-05-06 14:31 | 57.27487 | -26.83293 | 38092 ft | 466 kts | 279° |
| 2026-05-06 14:31 | 57.28478 | -26.95143 | 38092 ft | 467 kts | 279° |
| 2026-05-06 14:32 | 57.29460 | -27.07017 | 38094 ft | 467 kts | 279° |
| 2026-05-06 14:32 | 57.30267 | -27.16880 | 38096 ft | 467 kts | 279° |
| 2026-05-06 14:33 | 57.31229 | -27.28782 | 38100 ft | 467 kts | 278° |
| 2026-05-06 14:33 | 57.32334 | -27.42615 | 38107 ft | 468 kts | 278° |
| 2026-05-06 14:34 | 57.33120 | -27.52594 | 38110 ft | 468 kts | 278° |
| 2026-05-06 14:34 | 57.34049 | -27.64518 | 38113 ft | 468 kts | 278° |
| 2026-05-06 14:35 | 57.34968 | -27.76452 | 38118 ft | 468 kts | 278° |
| 2026-05-06 14:35 | 57.35875 | -27.88398 | 38122 ft | 469 kts | 278° |
| 2026-05-06 14:36 | 57.36766 | -28.00281 | 38124 ft | 469 kts | 278° |
| 2026-05-06 14:36 | 57.37652 | -28.12256 | 38127 ft | 469 kts | 278° |
| 2026-05-06 14:37 | 57.38528 | -28.24255 | 38130 ft | 469 kts | 278° |
| 2026-05-06 14:37 | 57.39392 | -28.36254 | 38136 ft | 470 kts | 278° |
| 2026-05-06 14:38 | 57.40246 | -28.48271 | 38139 ft | 470 kts | 278° |
| 2026-05-06 14:38 | 57.41089 | -28.60305 | 38137 ft | 470 kts | 278° |
| 2026-05-06 14:39 | 57.41920 | -28.72347 | 38143 ft | 470 kts | 278° |
| 2026-05-06 14:39 | 57.42735 | -28.84311 | 38148 ft | 471 kts | 278° |
| 2026-05-06 14:40 | 57.43545 | -28.96386 | 38150 ft | 471 kts | 278° |
| 2026-05-06 14:40 | 57.44344 | -29.08464 | 38154 ft | 471 kts | 278° |
| 2026-05-06 14:41 | 57.45131 | -29.20546 | 38155 ft | 472 kts | 278° |
| 2026-05-06 14:41 | 57.45907 | -29.32643 | 38157 ft | 472 kts | 277° |
| 2026-05-06 14:42 | 57.46671 | -29.44745 | 38166 ft | 472 kts | 277° |
| 2026-05-06 14:42 | 57.47420 | -29.56787 | 38165 ft | 472 kts | 277° |
| 2026-05-06 14:43 | 57.48164 | -29.68941 | 38167 ft | 473 kts | 277° |
| 2026-05-06 14:43 | 57.48895 | -29.81080 | 38167 ft | 473 kts | 277° |
| 2026-05-06 14:44 | 57.49615 | -29.93230 | 38173 ft | 473 kts | 277° |
| 2026-05-06 14:45 | 57.51577 | -30.11173 | 38175 ft | 472 kts | 285° |
| 2026-05-06 14:45 | 57.53249 | -30.23022 | 38177 ft | 472 kts | 285° |
| 2026-05-06 14:46 | 57.54930 | -30.34849 | 38179 ft | 473 kts | 285° |
| 2026-05-06 14:46 | 57.56581 | -30.46622 | 38181 ft | 473 kts | 285° |
| 2026-05-06 14:47 | 57.58233 | -30.58558 | 38184 ft | 473 kts | 285° |
| 2026-05-06 14:47 | 57.59851 | -30.70356 | 38185 ft | 473 kts | 285° |
| 2026-05-06 14:48 | 57.61470 | -30.82251 | 38188 ft | 473 kts | 285° |
| 2026-05-06 14:48 | 57.63079 | -30.94164 | 38192 ft | 473 kts | 285° |
| 2026-05-06 14:49 | 57.64676 | -31.06080 | 38194 ft | 473 kts | 285° |
| 2026-05-06 14:49 | 57.66262 | -31.18005 | 38197 ft | 473 kts | 285° |
| 2026-05-06 14:50 | 57.67837 | -31.29945 | 38205 ft | 473 kts | 285° |
| 2026-05-06 14:50 | 57.69404 | -31.41920 | 38204 ft | 473 kts | 285° |
| 2026-05-06 14:51 | 57.70948 | -31.53818 | 38208 ft | 474 kts | 285° |
| 2026-05-06 14:51 | 57.72489 | -31.65790 | 38209 ft | 474 kts | 284° |
| 2026-05-06 14:52 | 57.74023 | -31.77799 | 38209 ft | 474 kts | 284° |
| 2026-05-06 14:52 | 57.75544 | -31.89802 | 38210 ft | 474 kts | 284° |
| 2026-05-06 14:53 | 57.77055 | -32.01833 | 38216 ft | 474 kts | 284° |
| 2026-05-06 14:53 | 57.78554 | -32.13868 | 38221 ft | 474 kts | 284° |
| 2026-05-06 14:54 | 57.80040 | -32.25904 | 38218 ft | 474 kts | 284° |
| 2026-05-06 14:54 | 57.81506 | -32.37873 | 38224 ft | 474 kts | 284° |
| 2026-05-06 14:55 | 57.82972 | -32.49952 | 38223 ft | 474 kts | 284° |
| 2026-05-06 14:55 | 57.84426 | -32.62034 | 38227 ft | 475 kts | 284° |
| 2026-05-06 14:56 | 57.85869 | -32.74129 | 38231 ft | 475 kts | 284° |
| 2026-05-06 14:56 | 57.87301 | -32.86232 | 38229 ft | 475 kts | 284° |
| 2026-05-06 14:57 | 57.88721 | -32.98348 | 38238 ft | 475 kts | 284° |
| 2026-05-06 14:57 | 57.90129 | -33.10469 | 38238 ft | 475 kts | 284° |
| 2026-05-06 14:58 | 57.91527 | -33.22607 | 38241 ft | 475 kts | 284° |
| 2026-05-06 14:58 | 57.92912 | -33.34757 | 38241 ft | 475 kts | 283° |
| 2026-05-06 14:59 | 57.94287 | -33.46918 | 38246 ft | 475 kts | 283° |
| 2026-05-06 14:59 | 57.95642 | -33.59007 | 38247 ft | 475 kts | 283° |
| 2026-05-06 15:00 | 57.97001 | -33.71258 | 38252 ft | 475 kts | 283° |
| 2026-05-06 15:00 | 57.98333 | -33.83371 | 38247 ft | 475 kts | 283° |
| 2026-05-06 15:01 | 57.99660 | -33.95569 | 38251 ft | 475 kts | 283° |
| 2026-05-06 15:01 | 58.00975 | -34.07767 | 38260 ft | 475 kts | 283° |
| 2026-05-06 15:02 | 58.02281 | -34.19989 | 38255 ft | 475 kts | 283° |
| 2026-05-06 15:02 | 58.03575 | -34.32210 | 38257 ft | 475 kts | 283° |
| 2026-05-06 15:03 | 58.04859 | -34.44461 | 38260 ft | 475 kts | 283° |
| 2026-05-06 15:03 | 58.06128 | -34.56710 | 38265 ft | 475 kts | 283° |
| 2026-05-06 15:04 | 58.07381 | -34.68901 | 38262 ft | 475 kts | 283° |
| 2026-05-06 15:04 | 58.08629 | -34.81170 | 38275 ft | 475 kts | 283° |
| 2026-05-06 15:05 | 58.09863 | -34.93447 | 38260 ft | 475 kts | 282° |
| 2026-05-06 15:05 | 58.11088 | -35.05746 | 38278 ft | 476 kts | 282° |
| 2026-05-06 15:06 | 58.12304 | -35.18073 | 38266 ft | 476 kts | 282° |
| 2026-05-06 15:06 | 58.13505 | -35.30395 | 38273 ft | 476 kts | 282° |
| 2026-05-06 15:07 | 58.14694 | -35.42718 | 38276 ft | 476 kts | 282° |
| 2026-05-06 15:07 | 58.15870 | -35.55050 | 38283 ft | 476 kts | 282° |
| 2026-05-06 15:08 | 58.17035 | -35.67390 | 38284 ft | 476 kts | 282° |
| 2026-05-06 15:08 | 58.18189 | -35.79729 | 38285 ft | 476 kts | 282° |
| 2026-05-06 15:09 | 58.19332 | -35.92085 | 38288 ft | 476 kts | 282° |
| 2026-05-06 15:09 | 58.20455 | -36.04370 | 38287 ft | 476 kts | 282° |
| 2026-05-06 15:10 | 58.21575 | -36.16766 | 38292 ft | 477 kts | 282° |
| 2026-05-06 15:10 | 58.22682 | -36.29168 | 38293 ft | 476 kts | 282° |
| 2026-05-06 15:11 | 58.23776 | -36.41568 | 38294 ft | 477 kts | 281° |
| 2026-05-06 15:11 | 58.24860 | -36.53996 | 38295 ft | 477 kts | 281° |
| 2026-05-06 15:12 | 58.25924 | -36.66336 | 38298 ft | 477 kts | 281° |
| 2026-05-06 15:12 | 58.26984 | -36.78763 | 38298 ft | 477 kts | 281° |
| 2026-05-06 15:13 | 58.28031 | -36.91204 | 38300 ft | 476 kts | 281° |
| 2026-05-06 15:13 | 58.29066 | -37.03642 | 38300 ft | 477 kts | 281° |
| 2026-05-06 15:14 | 58.30089 | -37.16093 | 38302 ft | 476 kts | 281° |
| 2026-05-06 15:14 | 58.31101 | -37.28545 | 38304 ft | 476 kts | 281° |
| 2026-05-06 15:15 | 58.32101 | -37.41021 | 38308 ft | 477 kts | 281° |
| 2026-05-06 15:15 | 58.33088 | -37.53489 | 38311 ft | 476 kts | 281° |
| 2026-05-06 15:16 | 58.34060 | -37.65961 | 38313 ft | 476 kts | 281° |
| 2026-05-06 15:16 | 58.35022 | -37.78440 | 38310 ft | 476 kts | 281° |
| 2026-05-06 15:17 | 58.35966 | -37.90838 | 38308 ft | 476 kts | 281° |
| 2026-05-06 15:17 | 58.36905 | -38.03349 | 38307 ft | 476 kts | 280° |
| 2026-05-06 15:18 | 58.37832 | -38.15858 | 38318 ft | 477 kts | 280° |
| 2026-05-06 15:18 | 58.38746 | -38.28369 | 38315 ft | 476 kts | 280° |
| 2026-05-06 15:19 | 58.39646 | -38.40878 | 38317 ft | 477 kts | 280° |
| 2026-05-06 15:19 | 58.40538 | -38.53414 | 38319 ft | 476 kts | 280° |
| 2026-05-06 15:20 | 58.41414 | -38.65935 | 38321 ft | 476 kts | 280° |
| 2026-05-06 15:20 | 58.42279 | -38.78478 | 38324 ft | 476 kts | 280° |
| 2026-05-06 15:21 | 58.43131 | -38.91007 | 38332 ft | 476 kts | 279° |
| 2026-05-06 15:21 | 58.43967 | -39.03472 | 38330 ft | 477 kts | 279° |
| 2026-05-06 15:22 | 58.44795 | -39.16025 | 38331 ft | 477 kts | 279° |
| 2026-05-06 15:22 | 58.45609 | -39.28582 | 38324 ft | 477 kts | 279° |
| 2026-05-06 15:23 | 58.46283 | -39.39114 | 38326 ft | 477 kts | 279° |
| 2026-05-06 15:23 | 58.47076 | -39.51686 | 38329 ft | 476 kts | 279° |
| 2026-05-06 15:24 | 58.47858 | -39.64259 | 38332 ft | 477 kts | 279° |
| 2026-05-06 15:24 | 58.48624 | -39.76768 | 38328 ft | 476 kts | 279° |
| 2026-05-06 15:25 | 58.49381 | -39.89345 | 38330 ft | 476 kts | 279° |
| 2026-05-06 15:25 | 58.50354 | -40.01859 | 38339 ft | 474 kts | 286° |
| 2026-05-06 15:26 | 58.51973 | -40.14083 | 38334 ft | 473 kts | 287° |
| 2026-05-06 15:26 | 58.53688 | -40.26230 | 38332 ft | 473 kts | 287° |
| 2026-05-06 15:27 | 58.55405 | -40.38395 | 38333 ft | 473 kts | 288° |
| 2026-05-06 15:27 | 58.57103 | -40.50579 | 38333 ft | 473 kts | 287° |
| 2026-05-06 15:28 | 58.58782 | -40.62786 | 38333 ft | 473 kts | 287° |
| 2026-05-06 15:28 | 58.60448 | -40.75007 | 38338 ft | 474 kts | 287° |
| 2026-05-06 15:29 | 58.62091 | -40.87169 | 38339 ft | 474 kts | 287° |
| 2026-05-06 15:29 | 58.63735 | -40.99427 | 38339 ft | 474 kts | 287° |
| 2026-05-06 15:30 | 58.65369 | -41.11697 | 38342 ft | 474 kts | 287° |
| 2026-05-06 15:30 | 58.66988 | -41.23963 | 38338 ft | 474 kts | 287° |
| 2026-05-06 15:31 | 58.68598 | -41.36258 | 38339 ft | 474 kts | 287° |
| 2026-05-06 15:31 | 58.70184 | -41.48474 | 38342 ft | 474 kts | 286° |
| 2026-05-06 15:32 | 58.72556 | -41.66938 | 38342 ft | 474 kts | 286° |
| 2026-05-06 15:32 | 58.74123 | -41.79273 | 38339 ft | 474 kts | 286° |
| 2026-05-06 15:33 | 58.75685 | -41.91615 | 38340 ft | 474 kts | 286° |
| 2026-05-06 15:33 | 58.77231 | -42.03962 | 38345 ft | 474 kts | 286° |
| 2026-05-06 15:34 | 58.78764 | -42.16338 | 38341 ft | 474 kts | 285° |
| 2026-05-06 15:34 | 58.80286 | -42.28740 | 38339 ft | 474 kts | 286° |
| 2026-05-06 15:35 | 58.81796 | -42.41116 | 38338 ft | 474 kts | 285° |
| 2026-05-06 15:35 | 58.83286 | -42.53456 | 38336 ft | 475 kts | 285° |
| 2026-05-06 15:36 | 58.84775 | -42.65883 | 38337 ft | 475 kts | 285° |
| 2026-05-06 15:36 | 58.86254 | -42.78348 | 38341 ft | 475 kts | 285° |
| 2026-05-06 15:37 | 58.87721 | -42.90803 | 38342 ft | 475 kts | 285° |
| 2026-05-06 15:37 | 58.89174 | -43.03273 | 38337 ft | 475 kts | 284° |
| 2026-05-06 15:38 | 58.90617 | -43.15762 | 38336 ft | 476 kts | 284° |
| 2026-05-06 15:38 | 58.92048 | -43.28255 | 38335 ft | 476 kts | 284° |
| 2026-05-06 15:39 | 58.93466 | -43.40764 | 38334 ft | 476 kts | 284° |
| 2026-05-06 15:39 | 58.94863 | -43.53204 | 38336 ft | 476 kts | 284° |
| 2026-05-06 15:40 | 58.96257 | -43.65745 | 38335 ft | 476 kts | 283° |
| 2026-05-06 15:40 | 58.97641 | -43.78296 | 38328 ft | 476 kts | 283° |
| 2026-05-06 15:41 | 58.99014 | -43.90866 | 38327 ft | 477 kts | 283° |
| 2026-05-06 15:41 | 59.00377 | -44.03478 | 38329 ft | 477 kts | 283° |
| 2026-05-06 15:42 | 59.01727 | -44.16082 | 38330 ft | 477 kts | 283° |
| 2026-05-06 15:42 | 59.03065 | -44.28713 | 38329 ft | 478 kts | 283° |
| 2026-05-06 15:43 | 59.04392 | -44.41351 | 38325 ft | 478 kts | 282° |
| 2026-05-06 15:43 | 59.05700 | -44.53937 | 38318 ft | 479 kts | 282° |
| 2026-05-06 15:44 | 59.07008 | -44.66643 | 38316 ft | 480 kts | 282° |
| 2026-05-06 15:44 | 59.08305 | -44.79389 | 38313 ft | 480 kts | 282° |
| 2026-05-06 15:45 | 59.09589 | -44.92141 | 38309 ft | 481 kts | 282° |
| 2026-05-06 15:45 | 59.10863 | -45.04923 | 38306 ft | 481 kts | 281° |
| 2026-05-06 15:46 | 59.12125 | -45.17729 | 38299 ft | 482 kts | 281° |
| 2026-05-06 15:46 | 59.13379 | -45.30579 | 38295 ft | 483 kts | 281° |
| 2026-05-06 15:47 | 59.14621 | -45.43451 | 38291 ft | 485 kts | 281° |
| 2026-05-06 15:47 | 59.15855 | -45.56381 | 38285 ft | 486 kts | 281° |
| 2026-05-06 15:48 | 59.17071 | -45.69268 | 38276 ft | 487 kts | 280° |
| 2026-05-06 15:48 | 59.18285 | -45.82279 | 38271 ft | 488 kts | 280° |
| 2026-05-06 15:49 | 59.19488 | -45.95321 | 38267 ft | 488 kts | 280° |
| 2026-05-06 15:49 | 59.20679 | -46.08381 | 38265 ft | 489 kts | 279° |
| 2026-05-06 15:50 | 59.21858 | -46.21464 | 38259 ft | 490 kts | 279° |
| 2026-05-06 15:50 | 59.23024 | -46.34557 | 38256 ft | 490 kts | 279° |
| 2026-05-06 15:51 | 59.24180 | -46.47697 | 38249 ft | 490 kts | 279° |
| 2026-05-06 15:51 | 59.25321 | -46.60826 | 38241 ft | 490 kts | 278° |
| 2026-05-06 15:52 | 59.26450 | -46.73973 | 38240 ft | 491 kts | 278° |
| 2026-05-06 15:52 | 59.27560 | -46.87048 | 38238 ft | 491 kts | 278° |
| 2026-05-06 15:53 | 59.28661 | -47.00217 | 38230 ft | 491 kts | 278° |
| 2026-05-06 15:53 | 59.29750 | -47.13406 | 38225 ft | 491 kts | 277° |
| 2026-05-06 15:54 | 59.30828 | -47.26605 | 38222 ft | 491 kts | 277° |
| 2026-05-06 15:54 | 59.31891 | -47.39814 | 38215 ft | 491 kts | 277° |
| 2026-05-06 15:55 | 59.32943 | -47.53043 | 38211 ft | 492 kts | 276° |
| 2026-05-06 15:55 | 59.33982 | -47.66304 | 38204 ft | 492 kts | 276° |
| 2026-05-06 15:56 | 59.35000 | -47.79466 | 38201 ft | 492 kts | 276° |
| 2026-05-06 15:56 | 59.36013 | -47.92720 | 38195 ft | 492 kts | 276° |
| 2026-05-06 15:57 | 59.37013 | -48.05990 | 38191 ft | 492 kts | 276° |
| 2026-05-06 15:57 | 59.37995 | -48.19264 | 38184 ft | 492 kts | 275° |
| 2026-05-06 15:58 | 59.38968 | -48.32568 | 38174 ft | 492 kts | 275° |
| 2026-05-06 15:58 | 59.39926 | -48.45855 | 38166 ft | 492 kts | 275° |
| 2026-05-06 15:59 | 59.40870 | -48.59149 | 38164 ft | 492 kts | 275° |
| 2026-05-06 15:59 | 59.41800 | -48.72458 | 38161 ft | 492 kts | 275° |
| 2026-05-06 16:00 | 59.42716 | -48.85775 | 38153 ft | 492 kts | 274° |
| 2026-05-06 16:00 | 59.43614 | -48.99017 | 38147 ft | 492 kts | 274° |
| 2026-05-06 16:01 | 59.44507 | -49.12357 | 38138 ft | 492 kts | 274° |
| 2026-05-06 16:01 | 59.45386 | -49.25701 | 38130 ft | 492 kts | 274° |
| 2026-05-06 16:02 | 59.46246 | -49.39048 | 38123 ft | 492 kts | 274° |
| 2026-05-06 16:02 | 59.47094 | -49.52405 | 38119 ft | 492 kts | 273° |
| 2026-05-06 16:03 | 59.47934 | -49.65795 | 38114 ft | 493 kts | 273° |
| 2026-05-06 16:03 | 59.48760 | -49.79204 | 38103 ft | 493 kts | 273° |
| 2026-05-06 16:04 | 59.49559 | -49.92531 | 38097 ft | 494 kts | 272° |
| 2026-05-06 16:04 | 59.49389 | -50.05880 | 38097 ft | 485 kts | 257° |
| 2026-05-06 16:05 | 59.48257 | -50.18979 | 38083 ft | 485 kts | 255° |
| 2026-05-06 16:05 | 59.46959 | -50.32019 | 38079 ft | 485 kts | 254° |
| 2026-05-06 16:06 | 59.45645 | -50.45052 | 38071 ft | 486 kts | 254° |
| 2026-05-06 16:06 | 59.44334 | -50.58103 | 38055 ft | 486 kts | 254° |
| 2026-05-06 16:07 | 59.43022 | -50.71137 | 38049 ft | 487 kts | 254° |
| 2026-05-06 16:07 | 59.41698 | -50.84178 | 38042 ft | 487 kts | 254° |
| 2026-05-06 16:08 | 59.40372 | -50.97129 | 38035 ft | 487 kts | 253° |
| 2026-05-06 16:08 | 59.39023 | -51.10165 | 38031 ft | 487 kts | 253° |
| 2026-05-06 16:09 | 59.37659 | -51.23208 | 38014 ft | 487 kts | 253° |
| 2026-05-06 16:09 | 59.36281 | -51.36222 | 38004 ft | 487 kts | 253° |
| 2026-05-06 16:10 | 59.35125 | -51.47033 | 38002 ft | 487 kts | 253° |
| 2026-05-06 16:10 | 59.33721 | -51.60040 | 37990 ft | 487 kts | 253° |
| 2026-05-06 16:11 | 59.32310 | -51.73022 | 37985 ft | 487 kts | 253° |
| 2026-05-06 16:11 | 59.30882 | -51.86000 | 37975 ft | 487 kts | 253° |
| 2026-05-06 16:12 | 59.29440 | -51.98954 | 37968 ft | 488 kts | 252° |
| 2026-05-06 16:12 | 59.27983 | -52.11927 | 37955 ft | 488 kts | 253° |
| 2026-05-06 16:13 | 59.26514 | -52.24871 | 37947 ft | 488 kts | 252° |
| 2026-05-06 16:13 | 59.25043 | -52.37734 | 37925 ft | 488 kts | 252° |
| 2026-05-06 16:14 | 59.23550 | -52.50684 | 37943 ft | 488 kts | 252° |
| 2026-05-06 16:14 | 59.22046 | -52.63613 | 37923 ft | 488 kts | 252° |
| 2026-05-06 16:15 | 59.20528 | -52.76539 | 37918 ft | 489 kts | 252° |
| 2026-05-06 16:15 | 59.18993 | -52.89474 | 37912 ft | 489 kts | 252° |
| 2026-05-06 16:16 | 59.17441 | -53.02411 | 37900 ft | 491 kts | 252° |
| 2026-05-06 16:16 | 59.15885 | -53.15273 | 37891 ft | 491 kts | 252° |
| 2026-05-06 16:17 | 59.14299 | -53.28258 | 37884 ft | 493 kts | 252° |
| 2026-05-06 16:17 | 59.12698 | -53.41252 | 37875 ft | 493 kts | 252° |
| 2026-05-06 16:18 | 59.11081 | -53.54243 | 37867 ft | 495 kts | 252° |
| 2026-05-06 16:18 | 59.09450 | -53.67275 | 37859 ft | 496 kts | 252° |
| 2026-05-06 16:19 | 59.07806 | -53.80308 | 37850 ft | 496 kts | 252° |
| 2026-05-06 16:19 | 59.06142 | -53.93333 | 37842 ft | 496 kts | 252° |
| 2026-05-06 16:20 | 59.04474 | -54.06264 | 37830 ft | 497 kts | 252° |
| 2026-05-06 16:20 | 59.02780 | -54.19308 | 37822 ft | 497 kts | 251° |
| 2026-05-06 16:21 | 59.01074 | -54.32325 | 37802 ft | 498 kts | 251° |
| 2026-05-06 16:21 | 58.99352 | -54.45350 | 37798 ft | 498 kts | 251° |
| 2026-05-06 16:22 | 58.97615 | -54.58387 | 37792 ft | 499 kts | 251° |
| 2026-05-06 16:22 | 58.95865 | -54.71405 | 37781 ft | 499 kts | 251° |
| 2026-05-06 16:23 | 58.94110 | -54.84335 | 37773 ft | 500 kts | 251° |
| 2026-05-06 16:23 | 58.92329 | -54.97359 | 37761 ft | 500 kts | 251° |
| 2026-05-06 16:24 | 58.90538 | -55.10367 | 37752 ft | 501 kts | 251° |
| 2026-05-06 16:24 | 58.88729 | -55.23382 | 37742 ft | 501 kts | 251° |
| 2026-05-06 16:25 | 58.86902 | -55.36400 | 37730 ft | 502 kts | 250° |
| 2026-05-06 16:25 | 58.85064 | -55.49399 | 37718 ft | 502 kts | 250° |
| 2026-05-06 16:26 | 58.83211 | -55.62406 | 37708 ft | 502 kts | 250° |
| 2026-05-06 16:26 | 58.81360 | -55.75309 | 37697 ft | 502 kts | 250° |
| 2026-05-06 16:27 | 58.79484 | -55.88281 | 37690 ft | 502 kts | 250° |
| 2026-05-06 16:27 | 58.77591 | -56.01255 | 37681 ft | 502 kts | 250° |
| 2026-05-06 16:28 | 58.75685 | -56.14211 | 37672 ft | 502 kts | 250° |
| 2026-05-06 16:28 | 58.73763 | -56.27164 | 37664 ft | 502 kts | 250° |
| 2026-05-06 16:29 | 58.71831 | -56.40095 | 37653 ft | 503 kts | 250° |
| 2026-05-06 16:29 | 58.69885 | -56.53018 | 37648 ft | 503 kts | 250° |
| 2026-05-06 16:30 | 58.68256 | -56.63749 | 37639 ft | 503 kts | 250° |
| 2026-05-06 16:30 | 58.65964 | -56.78740 | 37625 ft | 503 kts | 250° |
| 2026-05-06 16:31 | 58.63979 | -56.91618 | 37616 ft | 503 kts | 249° |
| 2026-05-06 16:31 | 58.61982 | -57.04486 | 37611 ft | 503 kts | 249° |
| 2026-05-06 16:32 | 58.59966 | -57.17356 | 37602 ft | 503 kts | 249° |
| 2026-05-06 16:32 | 58.57941 | -57.30195 | 37591 ft | 503 kts | 249° |
| 2026-05-06 16:33 | 58.55904 | -57.43025 | 37589 ft | 504 kts | 249° |
| 2026-05-06 16:34 | 58.52831 | -57.62207 | 37575 ft | 504 kts | 249° |
| 2026-05-06 16:34 | 58.50756 | -57.75023 | 37572 ft | 504 kts | 249° |
| 2026-05-06 16:35 | 58.48667 | -57.87831 | 37570 ft | 504 kts | 249° |
| 2026-05-06 16:35 | 58.46564 | -58.00637 | 37849 ft | 504 kts | 249° |
| 2026-05-06 16:35 | 58.45530 | -58.07027 | 38130 ft | 503 kts | 250° |
| 2026-05-06 16:36 | 58.44527 | -58.13426 | 38323 ft | 502 kts | 250° |
| 2026-05-06 16:36 | 58.43534 | -58.19829 | 38447 ft | 503 kts | 250° |
| 2026-05-06 16:36 | 58.42540 | -58.26231 | 38568 ft | 503 kts | 250° |
| 2026-05-06 16:36 | 58.41540 | -58.32619 | 38700 ft | 503 kts | 250° |
| 2026-05-06 16:37 | 58.40532 | -58.39012 | 38826 ft | 503 kts | 250° |
| 2026-05-06 16:37 | 58.39515 | -58.45413 | 38943 ft | 504 kts | 250° |
| 2026-05-06 16:37 | 58.38495 | -58.51804 | 39057 ft | 504 kts | 250° |
| 2026-05-06 16:37 | 58.37482 | -58.58111 | 39197 ft | 504 kts | 250° |
| 2026-05-06 16:38 | 58.36453 | -58.64492 | 39299 ft | 504 kts | 250° |
| 2026-05-06 16:38 | 58.35421 | -58.70867 | 39411 ft | 504 kts | 250° |
| 2026-05-06 16:38 | 58.34382 | -58.77257 | 39505 ft | 505 kts | 250° |
| 2026-05-06 16:39 | 58.32294 | -58.90048 | 39518 ft | 506 kts | 250° |
| 2026-05-06 16:39 | 58.30192 | -59.02834 | 39517 ft | 506 kts | 250° |
| 2026-05-06 16:40 | 58.28079 | -59.15592 | 39514 ft | 506 kts | 250° |
| 2026-05-06 16:40 | 58.25968 | -59.28248 | 39514 ft | 506 kts | 250° |
| 2026-05-06 16:41 | 58.23829 | -59.40981 | 39515 ft | 506 kts | 250° |
| 2026-05-06 16:41 | 58.21680 | -59.53686 | 39513 ft | 506 kts | 250° |
| 2026-05-06 16:42 | 58.19517 | -59.66381 | 39512 ft | 506 kts | 250° |
| 2026-05-06 16:42 | 58.17340 | -59.79073 | 39520 ft | 506 kts | 249° |
| 2026-05-06 16:43 | 58.15150 | -59.91745 | 39521 ft | 506 kts | 249° |
| 2026-05-06 16:43 | 58.12946 | -60.04407 | 39521 ft | 506 kts | 249° |
| 2026-05-06 16:44 | 58.10733 | -60.17038 | 39527 ft | 506 kts | 249° |
| 2026-05-06 16:44 | 58.08505 | -60.29666 | 39528 ft | 506 kts | 249° |
| 2026-05-06 16:45 | 58.06280 | -60.42193 | 39536 ft | 506 kts | 249° |
| 2026-05-06 16:45 | 58.04024 | -60.54807 | 39544 ft | 506 kts | 249° |
| 2026-05-06 16:46 | 58.01757 | -60.67403 | 39544 ft | 507 kts | 249° |
| 2026-05-06 16:46 | 57.99478 | -60.79970 | 39538 ft | 507 kts | 249° |
| 2026-05-06 16:47 | 57.97187 | -60.92530 | 39545 ft | 507 kts | 249° |
| 2026-05-06 16:47 | 57.94881 | -61.05079 | 39551 ft | 507 kts | 249° |
| 2026-05-06 16:48 | 57.92576 | -61.17547 | 39556 ft | 507 kts | 249° |
| 2026-05-06 16:48 | 57.90244 | -61.30073 | 39558 ft | 507 kts | 249° |
| 2026-05-06 16:49 | 57.87899 | -61.42591 | 39559 ft | 507 kts | 248° |
| 2026-05-06 16:49 | 57.85541 | -61.55094 | 39560 ft | 507 kts | 248° |
| 2026-05-06 16:50 | 57.83172 | -61.67570 | 39562 ft | 507 kts | 248° |
| 2026-05-06 16:50 | 57.80790 | -61.80037 | 39563 ft | 507 kts | 248° |
| 2026-05-06 16:51 | 57.78397 | -61.92482 | 39563 ft | 507 kts | 248° |
| 2026-05-06 16:51 | 57.76012 | -62.04807 | 39563 ft | 507 kts | 248° |
| 2026-05-06 16:52 | 57.73596 | -62.17209 | 39562 ft | 507 kts | 248° |
| 2026-05-06 16:52 | 57.71168 | -62.29599 | 39565 ft | 507 kts | 248° |
| 2026-05-06 16:53 | 57.68726 | -62.41981 | 39568 ft | 507 kts | 248° |
| 2026-05-06 16:53 | 57.66274 | -62.54333 | 39571 ft | 507 kts | 248° |
| 2026-05-06 16:54 | 57.63807 | -62.66685 | 39574 ft | 507 kts | 248° |
| 2026-05-06 16:54 | 57.61329 | -62.79014 | 39575 ft | 508 kts | 248° |
| 2026-05-06 16:55 | 57.58838 | -62.91337 | 39581 ft | 508 kts | 248° |
| 2026-05-06 16:55 | 57.56334 | -63.03641 | 39587 ft | 508 kts | 247° |
| 2026-05-06 16:56 | 57.53817 | -63.15937 | 39593 ft | 508 kts | 247° |
| 2026-05-06 16:56 | 57.51285 | -63.28231 | 39600 ft | 508 kts | 247° |
| 2026-05-06 16:57 | 57.48743 | -63.40498 | 39606 ft | 508 kts | 247° |
| 2026-05-06 16:57 | 57.46203 | -63.52676 | 39608 ft | 509 kts | 247° |
| 2026-05-06 16:58 | 57.43635 | -63.64921 | 39617 ft | 509 kts | 247° |
| 2026-05-06 16:58 | 57.41054 | -63.77153 | 39624 ft | 509 kts | 247° |
| 2026-05-06 16:59 | 57.38464 | -63.89353 | 39627 ft | 508 kts | 246° |
| 2026-05-06 16:59 | 57.36302 | -63.99481 | 39629 ft | 508 kts | 246° |
| 2026-05-06 17:00 | 57.33691 | -64.11646 | 39632 ft | 508 kts | 246° |
| 2026-05-06 17:00 | 57.31066 | -64.23809 | 39638 ft | 508 kts | 246° |
| 2026-05-06 17:01 | 57.28435 | -64.35926 | 39634 ft | 508 kts | 246° |
| 2026-05-06 17:01 | 57.25790 | -64.48035 | 39642 ft | 508 kts | 246° |
| 2026-05-06 17:02 | 57.23134 | -64.60121 | 39647 ft | 507 kts | 246° |
| 2026-05-06 17:02 | 57.20488 | -64.72096 | 39644 ft | 507 kts | 246° |
| 2026-05-06 17:03 | 57.17797 | -64.84205 | 39646 ft | 507 kts | 246° |
| 2026-05-06 17:03 | 57.15133 | -64.96126 | 39644 ft | 506 kts | 246° |
| 2026-05-06 17:04 | 57.12440 | -65.08106 | 39643 ft | 506 kts | 246° |
| 2026-05-06 17:04 | 57.09738 | -65.20055 | 39641 ft | 506 kts | 245° |
| 2026-05-06 17:05 | 57.07023 | -65.31996 | 39644 ft | 506 kts | 245° |
| 2026-05-06 17:05 | 57.04295 | -65.43926 | 39642 ft | 505 kts | 245° |
| 2026-05-06 17:06 | 57.01565 | -65.55801 | 39644 ft | 505 kts | 245° |
| 2026-05-06 17:06 | 56.98843 | -65.67574 | 39640 ft | 504 kts | 245° |
| 2026-05-06 17:07 | 56.96094 | -65.79397 | 39692 ft | 504 kts | 245° |
| 2026-05-06 17:07 | 56.93376 | -65.91044 | 39637 ft | 489 kts | 244° |
| 2026-05-06 17:08 | 56.90706 | -66.02404 | 39637 ft | 484 kts | 244° |
| 2026-05-06 17:08 | 56.88032 | -66.13710 | 39632 ft | 485 kts | 244° |
| 2026-05-06 17:09 | 56.85342 | -66.25028 | 39630 ft | 485 kts | 244° |
| 2026-05-06 17:09 | 56.82647 | -66.36316 | 39628 ft | 485 kts | 244° |
| 2026-05-06 17:10 | 56.79942 | -66.47584 | 39635 ft | 485 kts | 244° |
| 2026-05-06 17:10 | 56.77227 | -66.58838 | 39633 ft | 485 kts | 244° |
| 2026-05-06 17:11 | 56.74500 | -66.70083 | 39629 ft | 485 kts | 244° |
| 2026-05-06 17:11 | 56.71781 | -66.81238 | 39626 ft | 485 kts | 244° |
| 2026-05-06 17:12 | 56.69032 | -66.92459 | 39616 ft | 485 kts | 244° |
| 2026-05-06 17:12 | 56.66757 | -67.04038 | 39625 ft | 488 kts | 253° |
| 2026-05-06 17:13 | 56.65210 | -67.16084 | 39615 ft | 489 kts | 255° |
| 2026-05-06 17:13 | 56.63777 | -67.28173 | 39614 ft | 489 kts | 256° |
| 2026-05-06 17:14 | 56.62336 | -67.40252 | 39613 ft | 489 kts | 255° |
| 2026-05-06 17:14 | 56.60865 | -67.52319 | 39612 ft | 489 kts | 255° |
| 2026-05-06 17:15 | 56.59382 | -67.64307 | 39607 ft | 490 kts | 255° |
| 2026-05-06 17:15 | 56.57876 | -67.76363 | 39601 ft | 490 kts | 255° |
| 2026-05-06 17:16 | 56.56360 | -67.88402 | 39606 ft | 490 kts | 255° |
| 2026-05-06 17:16 | 56.54832 | -68.00436 | 39603 ft | 490 kts | 255° |
| 2026-05-06 17:17 | 56.53291 | -68.12474 | 39599 ft | 490 kts | 255° |
| 2026-05-06 17:17 | 56.51741 | -68.24479 | 39599 ft | 489 kts | 255° |
| 2026-05-06 17:18 | 56.50181 | -68.36467 | 39595 ft | 489 kts | 255° |
| 2026-05-06 17:18 | 56.48609 | -68.48452 | 39596 ft | 489 kts | 255° |
| 2026-05-06 17:19 | 56.47025 | -68.60425 | 39596 ft | 489 kts | 255° |
| 2026-05-06 17:19 | 56.45441 | -68.72302 | 39597 ft | 489 kts | 254° |
| 2026-05-06 17:20 | 56.43833 | -68.84259 | 39598 ft | 489 kts | 254° |
| 2026-05-06 17:20 | 56.42213 | -68.96216 | 39590 ft | 489 kts | 254° |
| 2026-05-06 17:21 | 56.40582 | -69.08161 | 39589 ft | 489 kts | 254° |
| 2026-05-06 17:21 | 56.38943 | -69.20064 | 39589 ft | 489 kts | 254° |
| 2026-05-06 17:22 | 56.37291 | -69.31968 | 39587 ft | 489 kts | 254° |
| 2026-05-06 17:22 | 56.35639 | -69.43777 | 39590 ft | 489 kts | 254° |
| 2026-05-06 17:23 | 56.33966 | -69.55654 | 39588 ft | 489 kts | 254° |
| 2026-05-06 17:23 | 56.32281 | -69.67517 | 39581 ft | 489 kts | 253° |
| 2026-05-06 17:24 | 56.30584 | -69.79384 | 39588 ft | 489 kts | 253° |
| 2026-05-06 17:24 | 56.28876 | -69.91228 | 39581 ft | 489 kts | 253° |
| 2026-05-06 17:25 | 56.27157 | -70.03071 | 39586 ft | 489 kts | 253° |
| 2026-05-06 17:25 | 56.25430 | -70.14880 | 39582 ft | 488 kts | 253° |
| 2026-05-06 17:26 | 56.23689 | -70.26691 | 39581 ft | 488 kts | 253° |
| 2026-05-06 17:26 | 56.21937 | -70.38484 | 39581 ft | 488 kts | 253° |
| 2026-05-06 17:27 | 56.20175 | -70.50260 | 39579 ft | 488 kts | 253° |
| 2026-05-06 17:27 | 56.18415 | -70.61941 | 39574 ft | 488 kts | 253° |
| 2026-05-06 17:28 | 56.16633 | -70.73689 | 39578 ft | 488 kts | 253° |
| 2026-05-06 17:28 | 56.14837 | -70.85432 | 39574 ft | 488 kts | 253° |
| 2026-05-06 17:29 | 56.13030 | -70.97181 | 39571 ft | 488 kts | 253° |
| 2026-05-06 17:29 | 56.11213 | -71.08906 | 39574 ft | 488 kts | 253° |
| 2026-05-06 17:30 | 56.09384 | -71.20619 | 39575 ft | 488 kts | 253° |
| 2026-05-06 17:30 | 56.07540 | -71.32345 | 39572 ft | 488 kts | 253° |
| 2026-05-06 17:31 | 56.05691 | -71.44027 | 39576 ft | 488 kts | 252° |
| 2026-05-06 17:31 | 56.03840 | -71.55643 | 39562 ft | 489 kts | 252° |
| 2026-05-06 17:32 | 56.01964 | -71.67325 | 39561 ft | 489 kts | 252° |
| 2026-05-06 17:32 | 56.00077 | -71.78997 | 39580 ft | 489 kts | 252° |
| 2026-05-06 17:33 | 55.98180 | -71.90657 | 39566 ft | 489 kts | 252° |
| 2026-05-06 17:33 | 55.96274 | -72.02301 | 39569 ft | 489 kts | 252° |
| 2026-05-06 17:34 | 55.94355 | -72.13939 | 39564 ft | 489 kts | 252° |
| 2026-05-06 17:34 | 55.92427 | -72.25556 | 39565 ft | 488 kts | 252° |
| 2026-05-06 17:35 | 55.90485 | -72.37160 | 39562 ft | 489 kts | 252° |
| 2026-05-06 17:35 | 55.88533 | -72.48766 | 39566 ft | 489 kts | 252° |
| 2026-05-06 17:36 | 55.85582 | -72.66165 | 39564 ft | 489 kts | 252° |
| 2026-05-06 17:36 | 55.83614 | -72.77672 | 39566 ft | 489 kts | 252° |
| 2026-05-06 17:37 | 55.81623 | -72.89248 | 39558 ft | 489 kts | 252° |
| 2026-05-06 17:37 | 55.79621 | -73.00804 | 39563 ft | 489 kts | 252° |
| 2026-05-06 17:38 | 55.77603 | -73.12378 | 39561 ft | 489 kts | 252° |
| 2026-05-06 17:38 | 55.75578 | -73.23918 | 39558 ft | 489 kts | 252° |
| 2026-05-06 17:39 | 55.73540 | -73.35460 | 39563 ft | 490 kts | 252° |
| 2026-05-06 17:39 | 55.71490 | -73.46996 | 39561 ft | 490 kts | 251° |
| 2026-05-06 17:40 | 55.69446 | -73.58431 | 39562 ft | 490 kts | 251° |
| 2026-05-06 17:40 | 55.67372 | -73.69952 | 39563 ft | 490 kts | 251° |
| 2026-05-06 17:41 | 55.65290 | -73.81454 | 39566 ft | 490 kts | 251° |
| 2026-05-06 17:41 | 55.63199 | -73.92932 | 39567 ft | 490 kts | 251° |
| 2026-05-06 17:42 | 55.61093 | -74.04412 | 39565 ft | 490 kts | 251° |
| 2026-05-06 17:42 | 55.58980 | -74.15867 | 39568 ft | 490 kts | 251° |
| 2026-05-06 17:43 | 55.56858 | -74.27304 | 39567 ft | 490 kts | 251° |
| 2026-05-06 17:43 | 55.54721 | -74.38743 | 39570 ft | 490 kts | 251° |
| 2026-05-06 17:44 | 55.52576 | -74.50164 | 39571 ft | 490 kts | 251° |
| 2026-05-06 17:44 | 55.50435 | -74.61493 | 39569 ft | 490 kts | 251° |
| 2026-05-06 17:45 | 55.48268 | -74.72888 | 39572 ft | 490 kts | 251° |
| 2026-05-06 17:45 | 55.46089 | -74.84278 | 39576 ft | 490 kts | 251° |
| 2026-05-06 17:46 | 55.43901 | -74.95650 | 39580 ft | 490 kts | 251° |
| 2026-05-06 17:46 | 55.42076 | -75.05085 | 39580 ft | 490 kts | 251° |
| 2026-05-06 17:47 | 55.39871 | -75.16430 | 39581 ft | 490 kts | 250° |
| 2026-05-06 17:47 | 55.37651 | -75.27776 | 39585 ft | 490 kts | 250° |
| 2026-05-06 17:48 | 55.35424 | -75.39086 | 39585 ft | 490 kts | 250° |
| 2026-05-06 17:48 | 55.33186 | -75.50396 | 39588 ft | 490 kts | 250° |
| 2026-05-06 17:49 | 55.30939 | -75.61681 | 39595 ft | 490 kts | 250° |
| 2026-05-06 17:49 | 55.28695 | -75.72891 | 39595 ft | 490 kts | 250° |
| 2026-05-06 17:50 | 55.26425 | -75.84162 | 39598 ft | 489 kts | 250° |
| 2026-05-06 17:50 | 55.24145 | -75.95421 | 39602 ft | 490 kts | 250° |
| 2026-05-06 17:51 | 55.21858 | -76.06652 | 39605 ft | 489 kts | 250° |
| 2026-05-06 17:51 | 55.19560 | -76.17871 | 39608 ft | 489 kts | 250° |
| 2026-05-06 17:52 | 55.17250 | -76.29082 | 39610 ft | 490 kts | 250° |
| 2026-05-06 17:52 | 55.14932 | -76.40276 | 39609 ft | 490 kts | 250° |
| 2026-05-06 17:53 | 55.12602 | -76.51462 | 39611 ft | 489 kts | 250° |
| 2026-05-06 17:53 | 55.10264 | -76.62625 | 39615 ft | 489 kts | 250° |
| 2026-05-06 17:54 | 55.07915 | -76.73776 | 39622 ft | 490 kts | 249° |
| 2026-05-06 17:54 | 55.05552 | -76.84932 | 39622 ft | 490 kts | 249° |
| 2026-05-06 17:55 | 55.03197 | -76.95991 | 39624 ft | 489 kts | 249° |
| 2026-05-06 17:55 | 55.00817 | -77.07112 | 39629 ft | 489 kts | 249° |
| 2026-05-06 17:56 | 54.98428 | -77.18206 | 39631 ft | 489 kts | 249° |
| 2026-05-06 17:56 | 54.96029 | -77.29290 | 39637 ft | 489 kts | 249° |
| 2026-05-06 17:57 | 54.93620 | -77.40359 | 39638 ft | 489 kts | 249° |
| 2026-05-06 17:57 | 54.91202 | -77.51419 | 39636 ft | 489 kts | 249° |
| 2026-05-06 17:58 | 54.88773 | -77.62461 | 39636 ft | 489 kts | 249° |
| 2026-05-06 17:58 | 54.86333 | -77.73492 | 39636 ft | 489 kts | 249° |
| 2026-05-06 17:59 | 54.83884 | -77.84509 | 39641 ft | 489 kts | 249° |
| 2026-05-06 17:59 | 54.81428 | -77.95500 | 39647 ft | 489 kts | 249° |
| 2026-05-06 18:00 | 54.78972 | -78.06431 | 39653 ft | 489 kts | 249° |
| 2026-05-06 18:00 | 54.76494 | -78.17407 | 39659 ft | 489 kts | 248° |
| 2026-05-06 18:01 | 54.74007 | -78.28365 | 39663 ft | 489 kts | 248° |
| 2026-05-06 18:01 | 54.71509 | -78.39311 | 39667 ft | 489 kts | 248° |
| 2026-05-06 18:02 | 54.69002 | -78.50240 | 39673 ft | 489 kts | 248° |
| 2026-05-06 18:02 | 54.66482 | -78.61172 | 39676 ft | 489 kts | 248° |
| 2026-05-06 18:03 | 54.63972 | -78.72003 | 39683 ft | 489 kts | 248° |
| 2026-05-06 18:03 | 54.61434 | -78.82900 | 39684 ft | 489 kts | 248° |
| 2026-05-06 18:04 | 54.58883 | -78.93796 | 39689 ft | 490 kts | 248° |
| 2026-05-06 18:04 | 54.56325 | -79.04670 | 39692 ft | 490 kts | 248° |
| 2026-05-06 18:05 | 54.53753 | -79.15545 | 39698 ft | 490 kts | 248° |
| 2026-05-06 18:05 | 54.51174 | -79.26396 | 39699 ft | 489 kts | 248° |
| 2026-05-06 18:06 | 54.48584 | -79.37238 | 39705 ft | 490 kts | 248° |
| 2026-05-06 18:06 | 54.45985 | -79.48062 | 39709 ft | 490 kts | 248° |
| 2026-05-06 18:07 | 54.43393 | -79.58809 | 39712 ft | 490 kts | 247° |
| 2026-05-06 18:07 | 54.40773 | -79.69613 | 39711 ft | 490 kts | 247° |
| 2026-05-06 18:08 | 54.38143 | -79.80410 | 39714 ft | 490 kts | 247° |
| 2026-05-06 18:08 | 54.35501 | -79.91200 | 39716 ft | 490 kts | 247° |
| 2026-05-06 18:09 | 54.33101 | -80.02111 | 39728 ft | 490 kts | 254° |
| 2026-05-06 18:09 | 54.31341 | -80.13394 | 39722 ft | 490 kts | 256° |
| 2026-05-06 18:10 | 54.29696 | -80.24648 | 39726 ft | 490 kts | 256° |
| 2026-05-06 18:10 | 54.28042 | -80.35967 | 39724 ft | 490 kts | 256° |
| 2026-05-06 18:11 | 54.26364 | -80.47272 | 39730 ft | 490 kts | 256° |
| 2026-05-06 18:11 | 54.24668 | -80.58566 | 39734 ft | 490 kts | 255° |
| 2026-05-06 18:12 | 54.22960 | -80.69849 | 39734 ft | 490 kts | 255° |
| 2026-05-06 18:12 | 54.21240 | -80.81131 | 39738 ft | 490 kts | 255° |
| 2026-05-06 18:13 | 54.19513 | -80.92388 | 39739 ft | 490 kts | 255° |
| 2026-05-06 18:13 | 54.17773 | -81.03644 | 39741 ft | 491 kts | 255° |
| 2026-05-06 18:14 | 54.16021 | -81.14908 | 39745 ft | 490 kts | 255° |
| 2026-05-06 18:14 | 54.14271 | -81.26084 | 39746 ft | 490 kts | 255° |
| 2026-05-06 18:15 | 54.12500 | -81.37308 | 39750 ft | 490 kts | 255° |
| 2026-05-06 18:15 | 54.10718 | -81.48537 | 39751 ft | 491 kts | 255° |
| 2026-05-06 18:16 | 54.08926 | -81.59752 | 39752 ft | 490 kts | 255° |
| 2026-05-06 18:16 | 54.07122 | -81.70964 | 39756 ft | 490 kts | 255° |
| 2026-05-06 18:17 | 54.05309 | -81.82155 | 39757 ft | 490 kts | 255° |
| 2026-05-06 18:17 | 54.03489 | -81.93321 | 39757 ft | 490 kts | 254° |
| 2026-05-06 18:18 | 54.01666 | -82.04427 | 39760 ft | 490 kts | 254° |
| 2026-05-06 18:18 | 53.99822 | -82.15592 | 39762 ft | 490 kts | 254° |
| 2026-05-06 18:19 | 53.97970 | -82.26735 | 39763 ft | 490 kts | 254° |
| 2026-05-06 18:19 | 53.96103 | -82.37889 | 39765 ft | 490 kts | 254° |
| 2026-05-06 18:20 | 53.94228 | -82.49023 | 39768 ft | 490 kts | 254° |
| 2026-05-06 18:20 | 53.92344 | -82.60140 | 39768 ft | 490 kts | 254° |
| 2026-05-06 18:21 | 53.90448 | -82.71258 | 39772 ft | 490 kts | 254° |
| 2026-05-06 18:21 | 53.88544 | -82.82352 | 39773 ft | 490 kts | 254° |
| 2026-05-06 18:22 | 53.86637 | -82.93394 | 39778 ft | 490 kts | 253° |
| 2026-05-06 18:22 | 53.84711 | -83.04476 | 39777 ft | 490 kts | 253° |
| 2026-05-06 18:23 | 53.82777 | -83.15541 | 39781 ft | 490 kts | 253° |
| 2026-05-06 18:23 | 53.80833 | -83.26586 | 39782 ft | 490 kts | 253° |
| 2026-05-06 18:24 | 53.78878 | -83.37628 | 39782 ft | 490 kts | 253° |
| 2026-05-06 18:24 | 53.76912 | -83.48667 | 39788 ft | 490 kts | 253° |
| 2026-05-06 18:25 | 53.74936 | -83.59694 | 39791 ft | 490 kts | 253° |
| 2026-05-06 18:25 | 53.72963 | -83.70641 | 39794 ft | 490 kts | 253° |
| 2026-05-06 18:26 | 53.70967 | -83.81645 | 39798 ft | 490 kts | 253° |
| 2026-05-06 18:26 | 53.68963 | -83.92627 | 39797 ft | 490 kts | 253° |
| 2026-05-06 18:27 | 53.66947 | -84.03609 | 39802 ft | 490 kts | 253° |
| 2026-05-06 18:27 | 53.64923 | -84.14571 | 39802 ft | 490 kts | 253° |
| 2026-05-06 18:28 | 53.62890 | -84.25521 | 39806 ft | 489 kts | 253° |
| 2026-05-06 18:28 | 53.60847 | -84.36456 | 39809 ft | 489 kts | 253° |
| 2026-05-06 18:29 | 53.58806 | -84.47318 | 39812 ft | 489 kts | 252° |
| 2026-05-06 18:29 | 53.56742 | -84.58239 | 39814 ft | 489 kts | 252° |
| 2026-05-06 18:30 | 53.54669 | -84.69142 | 39817 ft | 489 kts | 252° |
| 2026-05-06 18:30 | 53.52586 | -84.80038 | 39824 ft | 489 kts | 252° |
| 2026-05-06 18:31 | 53.50493 | -84.90923 | 39825 ft | 489 kts | 252° |
| 2026-05-06 18:31 | 53.48391 | -85.01791 | 39826 ft | 489 kts | 252° |
| 2026-05-06 18:32 | 53.46279 | -85.12653 | 39826 ft | 489 kts | 252° |
| 2026-05-06 18:32 | 53.44170 | -85.23433 | 39831 ft | 489 kts | 252° |
| 2026-05-06 18:33 | 53.42037 | -85.34277 | 39832 ft | 490 kts | 252° |
| 2026-05-06 18:33 | 53.39894 | -85.45114 | 39835 ft | 489 kts | 252° |
| 2026-05-06 18:34 | 53.37741 | -85.55942 | 39835 ft | 489 kts | 252° |
| 2026-05-06 18:34 | 53.35932 | -85.64994 | 39837 ft | 490 kts | 252° |
| 2026-05-06 18:35 | 53.33774 | -85.75734 | 39842 ft | 490 kts | 252° |
| 2026-05-06 18:35 | 53.31593 | -85.86531 | 39841 ft | 490 kts | 252° |
| 2026-05-06 18:36 | 53.29401 | -85.97317 | 39845 ft | 490 kts | 252° |
| 2026-05-06 18:36 | 53.27200 | -86.08090 | 39850 ft | 490 kts | 251° |
| 2026-05-06 18:37 | 53.25356 | -86.17070 | 39846 ft | 490 kts | 251° |
| 2026-05-06 18:37 | 53.22760 | -86.29654 | 39854 ft | 490 kts | 251° |
| 2026-05-06 18:38 | 53.20529 | -86.40401 | 39853 ft | 491 kts | 251° |
| 2026-05-06 18:38 | 53.18285 | -86.51151 | 39859 ft | 491 kts | 251° |
| 2026-05-06 18:39 | 53.16033 | -86.61885 | 39858 ft | 491 kts | 251° |
| 2026-05-06 18:40 | 53.12647 | -86.77918 | 39864 ft | 491 kts | 251° |
| 2026-05-06 18:40 | 53.10371 | -86.88619 | 39868 ft | 491 kts | 251° |
| 2026-05-06 18:41 | 53.08082 | -86.99330 | 39873 ft | 491 kts | 251° |
| 2026-05-06 18:41 | 53.05782 | -87.10032 | 39873 ft | 492 kts | 251° |
| 2026-05-06 18:42 | 53.03471 | -87.20731 | 39875 ft | 492 kts | 251° |
| 2026-05-06 18:42 | 53.01150 | -87.31420 | 39877 ft | 492 kts | 251° |
| 2026-05-06 18:43 | 52.98819 | -87.42104 | 39878 ft | 492 kts | 251° |
| 2026-05-06 18:43 | 52.96476 | -87.52780 | 39885 ft | 492 kts | 251° |
| 2026-05-06 18:44 | 52.94123 | -87.63450 | 39889 ft | 492 kts | 251° |
| 2026-05-06 18:44 | 52.91762 | -87.74103 | 39890 ft | 493 kts | 251° |
| 2026-05-06 18:45 | 52.89404 | -87.84690 | 39894 ft | 493 kts | 251° |
| 2026-05-06 18:45 | 52.87021 | -87.95329 | 39897 ft | 493 kts | 250° |
| 2026-05-06 18:46 | 52.84629 | -88.05958 | 39904 ft | 493 kts | 250° |
| 2026-05-06 18:46 | 52.82221 | -88.16599 | 39906 ft | 494 kts | 250° |
| 2026-05-06 18:47 | 52.79803 | -88.27235 | 39908 ft | 494 kts | 250° |
| 2026-05-06 18:47 | 52.77380 | -88.37841 | 39912 ft | 494 kts | 250° |
| 2026-05-06 18:48 | 52.74959 | -88.48380 | 39911 ft | 494 kts | 250° |
| 2026-05-06 18:48 | 52.72498 | -88.59044 | 39913 ft | 494 kts | 250° |
| 2026-05-06 18:49 | 52.70058 | -88.69567 | 39917 ft | 494 kts | 250° |
| 2026-05-06 18:49 | 52.67588 | -88.80161 | 39919 ft | 495 kts | 250° |
| 2026-05-06 18:50 | 52.65108 | -88.90745 | 39925 ft | 495 kts | 250° |
| 2026-05-06 18:50 | 52.62622 | -89.01307 | 39925 ft | 495 kts | 250° |
| 2026-05-06 18:51 | 52.60124 | -89.11865 | 39928 ft | 495 kts | 250° |
| 2026-05-06 18:51 | 52.57617 | -89.22409 | 39930 ft | 495 kts | 250° |
| 2026-05-06 18:52 | 52.55099 | -89.32948 | 39932 ft | 495 kts | 250° |
| 2026-05-06 18:52 | 52.52571 | -89.43485 | 39937 ft | 495 kts | 249° |
| 2026-05-06 18:53 | 52.50034 | -89.54003 | 39938 ft | 495 kts | 249° |
| 2026-05-06 18:53 | 52.47502 | -89.64452 | 39941 ft | 496 kts | 249° |
| 2026-05-06 18:54 | 52.44946 | -89.74945 | 39956 ft | 496 kts | 249° |
| 2026-05-06 18:54 | 52.42378 | -89.85431 | 39942 ft | 496 kts | 249° |
| 2026-05-06 18:55 | 52.39800 | -89.95912 | 39941 ft | 496 kts | 249° |
| 2026-05-06 18:55 | 52.37214 | -90.06381 | 39949 ft | 495 kts | 249° |
| 2026-05-06 18:56 | 52.34636 | -90.16766 | 39944 ft | 495 kts | 249° |
| 2026-05-06 18:56 | 52.32035 | -90.27197 | 39959 ft | 496 kts | 249° |
| 2026-05-06 18:57 | 52.29422 | -90.37622 | 39958 ft | 496 kts | 249° |
| 2026-05-06 18:57 | 52.26801 | -90.48031 | 39958 ft | 495 kts | 249° |
| 2026-05-06 18:58 | 52.24171 | -90.58437 | 39956 ft | 495 kts | 249° |
| 2026-05-06 18:58 | 52.21530 | -90.68828 | 39961 ft | 495 kts | 249° |
| 2026-05-06 18:59 | 52.18884 | -90.79193 | 39968 ft | 495 kts | 249° |
| 2026-05-06 18:59 | 52.16245 | -90.89486 | 39974 ft | 495 kts | 248° |
| 2026-05-06 19:00 | 52.13581 | -90.99822 | 39967 ft | 495 kts | 248° |
| 2026-05-06 19:00 | 52.10907 | -91.10148 | 39975 ft | 494 kts | 248° |
| 2026-05-06 19:01 | 52.08229 | -91.20449 | 39975 ft | 494 kts | 248° |
| 2026-05-06 19:01 | 52.05544 | -91.30733 | 39982 ft | 494 kts | 248° |
| 2026-05-06 19:02 | 52.02851 | -91.40999 | 39982 ft | 494 kts | 248° |
| 2026-05-06 19:02 | 52.00164 | -91.51193 | 39987 ft | 494 kts | 248° |
| 2026-05-06 19:03 | 51.97454 | -91.61428 | 39991 ft | 494 kts | 248° |
| 2026-05-06 19:03 | 51.94733 | -91.71662 | 39996 ft | 494 kts | 248° |
| 2026-05-06 19:04 | 51.92001 | -91.81894 | 40000 ft | 494 kts | 248° |
| 2026-05-06 19:04 | 51.89264 | -91.92094 | 39997 ft | 494 kts | 248° |
| 2026-05-06 19:05 | 51.86518 | -92.02283 | 39999 ft | 494 kts | 248° |
| 2026-05-06 19:05 | 51.83773 | -92.12383 | 40008 ft | 494 kts | 247° |
| 2026-05-06 19:06 | 51.80963 | -92.22508 | 40006 ft | 494 kts | 247° |
| 2026-05-06 19:06 | 51.78140 | -92.32623 | 40007 ft | 494 kts | 247° |
| 2026-05-06 19:07 | 51.75312 | -92.42740 | 40014 ft | 494 kts | 247° |
| 2026-05-06 19:07 | 51.72481 | -92.52834 | 40015 ft | 494 kts | 247° |
| 2026-05-06 19:08 | 51.69642 | -92.62920 | 40020 ft | 493 kts | 247° |
| 2026-05-06 19:08 | 51.66797 | -92.72983 | 40023 ft | 493 kts | 246° |
| 2026-05-06 19:09 | 51.63944 | -92.83030 | 40015 ft | 493 kts | 246° |
| 2026-05-06 19:09 | 51.61100 | -92.93004 | 40019 ft | 493 kts | 246° |
| 2026-05-06 19:10 | 51.58225 | -93.03041 | 40022 ft | 493 kts | 246° |
| 2026-05-06 19:10 | 51.55345 | -93.13052 | 40022 ft | 493 kts | 246° |
| 2026-05-06 19:11 | 51.52458 | -93.23048 | 40025 ft | 493 kts | 246° |
| 2026-05-06 19:11 | 51.49560 | -93.33041 | 40028 ft | 493 kts | 246° |
| 2026-05-06 19:12 | 51.46657 | -93.43008 | 40027 ft | 493 kts | 246° |
| 2026-05-06 19:12 | 51.43738 | -93.52986 | 40028 ft | 493 kts | 246° |
| 2026-05-06 19:13 | 51.40818 | -93.62928 | 40031 ft | 493 kts | 246° |
| 2026-05-06 19:13 | 51.37907 | -93.72799 | 40024 ft | 493 kts | 246° |
| 2026-05-06 19:14 | 51.34949 | -93.82787 | 40016 ft | 493 kts | 246° |
| 2026-05-06 19:14 | 51.32007 | -93.92681 | 40014 ft | 493 kts | 246° |
| 2026-05-06 19:15 | 51.29074 | -94.02503 | 40013 ft | 493 kts | 246° |
| 2026-05-06 19:15 | 51.26091 | -94.12450 | 40021 ft | 493 kts | 246° |
| 2026-05-06 19:16 | 51.23140 | -94.22252 | 40030 ft | 493 kts | 246° |
| 2026-05-06 19:16 | 51.20164 | -94.32100 | 40042 ft | 493 kts | 245° |
| 2026-05-06 19:17 | 51.17175 | -94.41947 | 40041 ft | 493 kts | 245° |
| 2026-05-06 19:17 | 51.14177 | -94.51783 | 40047 ft | 493 kts | 245° |
| 2026-05-06 19:18 | 51.11177 | -94.61587 | 40054 ft | 493 kts | 245° |
| 2026-05-06 19:18 | 51.08165 | -94.71394 | 40050 ft | 493 kts | 245° |
| 2026-05-06 19:19 | 51.05164 | -94.81120 | 40047 ft | 493 kts | 245° |
| 2026-05-06 19:19 | 51.02137 | -94.90895 | 40059 ft | 493 kts | 245° |
| 2026-05-06 19:20 | 50.99102 | -95.00657 | 40050 ft | 493 kts | 245° |
| 2026-05-06 19:20 | 50.96572 | -95.08765 | 40049 ft | 493 kts | 245° |
| 2026-05-06 19:21 | 50.93525 | -95.18495 | 40055 ft | 493 kts | 245° |
| 2026-05-06 19:21 | 50.90466 | -95.28222 | 40057 ft | 493 kts | 245° |
| 2026-05-06 19:22 | 50.87401 | -95.37929 | 40062 ft | 493 kts | 245° |
| 2026-05-06 19:22 | 50.84327 | -95.47627 | 40061 ft | 493 kts | 245° |
| 2026-05-06 19:23 | 50.81248 | -95.57306 | 40068 ft | 493 kts | 245° |
| 2026-05-06 19:23 | 50.78153 | -95.66993 | 40066 ft | 493 kts | 245° |
| 2026-05-06 19:24 | 50.75056 | -95.76652 | 40071 ft | 493 kts | 245° |
| 2026-05-06 19:24 | 50.71970 | -95.86239 | 40071 ft | 493 kts | 245° |
| 2026-05-06 19:25 | 50.68857 | -95.95872 | 40079 ft | 493 kts | 245° |
| 2026-05-06 19:25 | 50.65732 | -96.05502 | 40081 ft | 493 kts | 245° |
| 2026-05-06 19:26 | 50.62605 | -96.15106 | 40085 ft | 493 kts | 245° |
| 2026-05-06 19:26 | 50.59466 | -96.24707 | 40087 ft | 493 kts | 245° |
| 2026-05-06 19:27 | 50.56320 | -96.34291 | 40088 ft | 493 kts | 244° |
| 2026-05-06 19:27 | 50.53169 | -96.43854 | 40089 ft | 493 kts | 244° |
| 2026-05-06 19:28 | 50.50009 | -96.53409 | 40088 ft | 493 kts | 244° |
| 2026-05-06 19:28 | 50.46838 | -96.62961 | 40086 ft | 493 kts | 244° |
| 2026-05-06 19:29 | 50.43659 | -96.72501 | 40084 ft | 493 kts | 244° |
| 2026-05-06 19:29 | 50.40477 | -96.82015 | 40083 ft | 493 kts | 244° |
| 2026-05-06 19:30 | 50.37285 | -96.91520 | 40077 ft | 493 kts | 244° |
| 2026-05-06 19:30 | 50.34088 | -97.01006 | 40078 ft | 492 kts | 244° |
| 2026-05-06 19:31 | 50.30883 | -97.10478 | 40078 ft | 492 kts | 244° |
| 2026-05-06 19:31 | 50.26085 | -97.24596 | 40075 ft | 492 kts | 244° |
| 2026-05-06 19:32 | 50.22859 | -97.34043 | 40074 ft | 492 kts | 244° |
| 2026-05-06 19:32 | 50.19624 | -97.43480 | 40075 ft | 492 kts | 244° |
| 2026-05-06 19:33 | 50.16384 | -97.52900 | 40076 ft | 492 kts | 244° |
| 2026-05-06 19:33 | 50.13133 | -97.62315 | 40085 ft | 492 kts | 244° |
| 2026-05-06 19:34 | 50.09877 | -97.71709 | 40088 ft | 492 kts | 244° |
| 2026-05-06 19:34 | 50.06611 | -97.81096 | 40088 ft | 493 kts | 244° |
| 2026-05-06 19:35 | 50.03361 | -97.90408 | 40077 ft | 492 kts | 244° |
| 2026-05-06 19:35 | 49.99985 | -97.99690 | 40067 ft | 494 kts | 238° |
| 2026-05-06 19:36 | 49.95906 | -98.08318 | 40060 ft | 496 kts | 235° |
| 2026-05-06 19:36 | 49.91679 | -98.16775 | 40051 ft | 496 kts | 234° |
| 2026-05-06 19:37 | 49.87425 | -98.25200 | 40051 ft | 496 kts | 234° |
| 2026-05-06 19:37 | 49.83177 | -98.33623 | 40057 ft | 496 kts | 234° |
| 2026-05-06 19:38 | 49.78934 | -98.42034 | 40054 ft | 496 kts | 234° |
| 2026-05-06 19:38 | 49.74685 | -98.50436 | 40066 ft | 496 kts | 234° |
| 2026-05-06 19:39 | 49.70425 | -98.58831 | 40070 ft | 496 kts | 234° |
| 2026-05-06 19:39 | 49.66165 | -98.67202 | 40068 ft | 496 kts | 234° |
| 2026-05-06 19:40 | 49.61893 | -98.75565 | 40066 ft | 496 kts | 234° |
| 2026-05-06 19:40 | 49.57648 | -98.83853 | 40072 ft | 496 kts | 234° |
| 2026-05-06 19:41 | 49.53367 | -98.92182 | 40074 ft | 496 kts | 234° |
| 2026-05-06 19:41 | 49.49076 | -99.00505 | 40080 ft | 496 kts | 234° |
| 2026-05-06 19:42 | 49.44779 | -99.08814 | 40083 ft | 496 kts | 234° |
| 2026-05-06 19:42 | 49.40480 | -99.17101 | 40088 ft | 496 kts | 234° |
| 2026-05-06 19:43 | 49.36175 | -99.25372 | 40087 ft | 496 kts | 234° |
| 2026-05-06 19:43 | 49.31862 | -99.33634 | 40087 ft | 496 kts | 234° |
| 2026-05-06 19:44 | 49.27540 | -99.41888 | 40090 ft | 496 kts | 234° |
| 2026-05-06 19:44 | 49.23220 | -99.50112 | 40091 ft | 496 kts | 234° |
| 2026-05-06 19:45 | 49.18910 | -99.58291 | 40090 ft | 496 kts | 234° |
| 2026-05-06 19:45 | 49.14575 | -99.66493 | 40090 ft | 496 kts | 234° |
| 2026-05-06 19:46 | 49.10228 | -99.74691 | 40092 ft | 496 kts | 234° |
| 2026-05-06 19:46 | 49.05879 | -99.82867 | 40094 ft | 496 kts | 234° |
| 2026-05-06 19:47 | 49.01524 | -99.91031 | 40094 ft | 496 kts | 234° |
| 2026-05-06 19:47 | 48.97167 | -99.99173 | 40093 ft | 496 kts | 234° |
| 2026-05-06 19:48 | 48.92802 | -100.07307 | 40095 ft | 496 kts | 234° |
| 2026-05-06 19:48 | 48.88428 | -100.15430 | 40094 ft | 496 kts | 234° |
| 2026-05-06 19:49 | 48.84051 | -100.23535 | 40094 ft | 496 kts | 234° |
| 2026-05-06 19:49 | 48.79664 | -100.31634 | 40098 ft | 496 kts | 234° |
| 2026-05-06 19:50 | 48.75308 | -100.39650 | 40091 ft | 496 kts | 234° |
| 2026-05-06 19:50 | 48.70907 | -100.47727 | 40097 ft | 496 kts | 234° |
| 2026-05-06 19:51 | 48.66509 | -100.55772 | 40093 ft | 496 kts | 234° |
| 2026-05-06 19:51 | 48.62096 | -100.63821 | 40098 ft | 497 kts | 234° |
| 2026-05-06 19:52 | 48.57681 | -100.71850 | 40095 ft | 497 kts | 233° |
| 2026-05-06 19:52 | 48.53263 | -100.79860 | 40097 ft | 497 kts | 233° |
| 2026-05-06 19:53 | 48.48839 | -100.87856 | 40087 ft | 497 kts | 233° |
| 2026-05-06 19:53 | 48.44404 | -100.95849 | 40069 ft | 497 kts | 233° |
| 2026-05-06 19:54 | 48.39965 | -101.03824 | 40053 ft | 497 kts | 233° |
| 2026-05-06 19:54 | 48.35518 | -101.11791 | 40042 ft | 497 kts | 233° |
| 2026-05-06 19:55 | 48.31067 | -101.19740 | 40034 ft | 497 kts | 233° |
| 2026-05-06 19:55 | 48.26639 | -101.27626 | 40034 ft | 497 kts | 233° |
| 2026-05-06 19:56 | 48.22372 | -101.35739 | 40034 ft | 494 kts | 238° |
| 2026-05-06 19:56 | 48.18425 | -101.44187 | 40042 ft | 494 kts | 239° |
| 2026-05-06 19:57 | 48.14480 | -101.52599 | 40053 ft | 494 kts | 238° |
| 2026-05-06 19:57 | 48.10466 | -101.60956 | 40060 ft | 494 kts | 238° |
| 2026-05-06 19:58 | 48.06419 | -101.69272 | 40071 ft | 494 kts | 238° |
| 2026-05-06 19:58 | 48.02361 | -101.77574 | 40074 ft | 494 kts | 238° |
| 2026-05-06 19:59 | 47.98320 | -101.85821 | 40070 ft | 494 kts | 238° |
| 2026-05-06 19:59 | 47.94258 | -101.94093 | 40075 ft | 494 kts | 238° |
| 2026-05-06 20:00 | 47.90184 | -102.02364 | 40076 ft | 494 kts | 238° |
| 2026-05-06 20:00 | 47.86104 | -102.10624 | 40077 ft | 495 kts | 238° |
| 2026-05-06 20:01 | 47.82021 | -102.18863 | 40075 ft | 495 kts | 238° |
| 2026-05-06 20:01 | 47.77927 | -102.27101 | 40082 ft | 495 kts | 238° |
| 2026-05-06 20:02 | 47.73832 | -102.35317 | 40073 ft | 495 kts | 238° |
| 2026-05-06 20:02 | 47.69728 | -102.43525 | 40077 ft | 495 kts | 238° |
| 2026-05-06 20:03 | 47.65618 | -102.51721 | 40073 ft | 495 kts | 238° |
| 2026-05-06 20:03 | 47.61501 | -102.59906 | 40073 ft | 495 kts | 238° |
| 2026-05-06 20:04 | 47.57376 | -102.68082 | 40057 ft | 495 kts | 238° |
| 2026-05-06 20:04 | 47.53272 | -102.76193 | 40055 ft | 495 kts | 238° |
| 2026-05-06 20:05 | 47.49132 | -102.84349 | 40058 ft | 495 kts | 238° |
| 2026-05-06 20:05 | 47.44990 | -102.92485 | 40058 ft | 495 kts | 238° |
| 2026-05-06 20:06 | 47.40836 | -103.00623 | 40063 ft | 495 kts | 238° |
| 2026-05-06 20:06 | 47.37382 | -103.07370 | 40065 ft | 496 kts | 238° |
| 2026-05-06 20:07 | 47.33221 | -103.15476 | 40065 ft | 496 kts | 238° |
| 2026-05-06 20:07 | 47.29045 | -103.23588 | 40071 ft | 496 kts | 238° |
| 2026-05-06 20:08 | 47.24861 | -103.31691 | 40070 ft | 497 kts | 238° |
| 2026-05-06 20:08 | 47.20671 | -103.39782 | 40061 ft | 497 kts | 238° |
| 2026-05-06 20:09 | 47.16473 | -103.47864 | 40065 ft | 497 kts | 238° |
| 2026-05-06 20:09 | 47.12270 | -103.55932 | 40066 ft | 498 kts | 238° |
| 2026-05-06 20:10 | 47.08086 | -103.63939 | 40069 ft | 498 kts | 238° |
| 2026-05-06 20:10 | 47.03838 | -103.72047 | 40068 ft | 498 kts | 238° |
| 2026-05-06 20:11 | 46.99636 | -103.80044 | 40068 ft | 498 kts | 238° |
| 2026-05-06 20:11 | 46.95400 | -103.88084 | 40067 ft | 498 kts | 238° |
| 2026-05-06 20:12 | 46.91160 | -103.96104 | 40070 ft | 498 kts | 238° |
| 2026-05-06 20:12 | 46.86904 | -104.04131 | 40070 ft | 498 kts | 238° |
| 2026-05-06 20:13 | 46.82652 | -104.12128 | 40073 ft | 498 kts | 238° |
| 2026-05-06 20:13 | 46.78392 | -104.20119 | 40073 ft | 499 kts | 238° |
| 2026-05-06 20:14 | 46.74152 | -104.28047 | 40074 ft | 499 kts | 238° |
| 2026-05-06 20:14 | 46.69875 | -104.36023 | 40072 ft | 499 kts | 238° |
| 2026-05-06 20:15 | 46.65595 | -104.43982 | 40072 ft | 498 kts | 238° |
| 2026-05-06 20:15 | 46.61316 | -104.51915 | 40067 ft | 498 kts | 238° |
| 2026-05-06 20:16 | 46.57025 | -104.59849 | 40072 ft | 498 kts | 238° |
| 2026-05-06 20:16 | 46.52726 | -104.67775 | 40070 ft | 498 kts | 238° |
| 2026-05-06 20:17 | 46.48456 | -104.75624 | 40067 ft | 498 kts | 238° |
| 2026-05-06 20:17 | 46.44155 | -104.83507 | 40068 ft | 498 kts | 238° |
| 2026-05-06 20:18 | 46.39843 | -104.91390 | 40066 ft | 498 kts | 238° |
| 2026-05-06 20:18 | 46.35526 | -104.99259 | 40069 ft | 499 kts | 238° |
| 2026-05-06 20:19 | 46.31206 | -105.07112 | 40065 ft | 499 kts | 237° |
| 2026-05-06 20:19 | 46.26876 | -105.14960 | 40074 ft | 499 kts | 237° |
| 2026-05-06 20:20 | 46.22258 | -105.22505 | 40068 ft | 507 kts | 227° |
| 2026-05-06 20:20 | 46.16882 | -105.29162 | 40069 ft | 510 kts | 225° |
| 2026-05-06 20:21 | 46.11416 | -105.35586 | 40063 ft | 511 kts | 224° |
| 2026-05-06 20:21 | 46.05893 | -105.42033 | 40060 ft | 511 kts | 224° |
| 2026-05-06 20:22 | 46.00381 | -105.48490 | 40063 ft | 511 kts | 225° |
| 2026-05-06 20:22 | 45.94867 | -105.54956 | 40064 ft | 511 kts | 225° |
| 2026-05-06 20:23 | 45.89356 | -105.61404 | 40059 ft | 511 kts | 224° |
| 2026-05-06 20:23 | 45.83841 | -105.67839 | 40060 ft | 511 kts | 224° |
| 2026-05-06 20:24 | 45.78306 | -105.74279 | 40057 ft | 511 kts | 224° |
| 2026-05-06 20:24 | 45.72777 | -105.80694 | 40057 ft | 512 kts | 224° |
| 2026-05-06 20:25 | 45.67242 | -105.87099 | 40074 ft | 512 kts | 224° |
| 2026-05-06 20:25 | 45.61732 | -105.93460 | 40081 ft | 512 kts | 224° |
| 2026-05-06 20:26 | 45.56182 | -105.99851 | 40077 ft | 512 kts | 224° |
| 2026-05-06 20:26 | 45.50629 | -106.06226 | 40078 ft | 512 kts | 224° |
| 2026-05-06 20:27 | 45.45074 | -106.12588 | 40079 ft | 512 kts | 224° |
| 2026-05-06 20:27 | 45.39501 | -106.18954 | 40077 ft | 513 kts | 224° |
| 2026-05-06 20:28 | 45.33939 | -106.25290 | 40076 ft | 513 kts | 224° |
| 2026-05-06 20:28 | 45.28394 | -106.31593 | 40078 ft | 513 kts | 224° |
| 2026-05-06 20:29 | 45.22816 | -106.37915 | 40076 ft | 513 kts | 224° |
| 2026-05-06 20:29 | 45.17231 | -106.44228 | 40081 ft | 514 kts | 224° |
| 2026-05-06 20:30 | 45.08843 | -106.53681 | 40079 ft | 514 kts | 223° |
| 2026-05-06 20:31 | 45.03242 | -106.59972 | 40083 ft | 514 kts | 223° |
| 2026-05-06 20:31 | 44.97639 | -106.66249 | 40079 ft | 514 kts | 223° |
| 2026-05-06 20:32 | 44.92029 | -106.72518 | 40072 ft | 514 kts | 223° |
| 2026-05-06 20:32 | 44.86416 | -106.78773 | 40061 ft | 514 kts | 223° |
| 2026-05-06 20:33 | 44.80839 | -106.84975 | 40056 ft | 514 kts | 223° |
| 2026-05-06 20:33 | 44.75218 | -106.91208 | 40053 ft | 514 kts | 223° |
| 2026-05-06 20:34 | 44.69588 | -106.97435 | 40051 ft | 514 kts | 223° |
| 2026-05-06 20:34 | 44.63959 | -107.03646 | 40060 ft | 515 kts | 223° |
| 2026-05-06 20:35 | 44.58326 | -107.09842 | 40076 ft | 514 kts | 223° |
| 2026-05-06 20:35 | 44.52692 | -107.16028 | 40102 ft | 514 kts | 223° |
| 2026-05-06 20:36 | 44.47049 | -107.22208 | 40128 ft | 514 kts | 223° |
| 2026-05-06 20:36 | 44.41411 | -107.28364 | 40147 ft | 514 kts | 223° |
| 2026-05-06 20:37 | 44.35761 | -107.34522 | 40133 ft | 514 kts | 223° |
| 2026-05-06 20:37 | 44.30148 | -107.40623 | 40148 ft | 515 kts | 223° |
| 2026-05-06 20:38 | 44.24489 | -107.46759 | 40149 ft | 515 kts | 223° |
| 2026-05-06 20:38 | 44.18817 | -107.52891 | 40140 ft | 515 kts | 223° |
| 2026-05-06 20:39 | 44.13152 | -107.59001 | 40126 ft | 515 kts | 223° |
| 2026-05-06 20:39 | 44.07482 | -107.65100 | 40108 ft | 515 kts | 223° |
| 2026-05-06 20:40 | 44.01805 | -107.71195 | 40100 ft | 516 kts | 223° |
| 2026-05-06 20:40 | 43.96115 | -107.77286 | 40100 ft | 516 kts | 223° |
| 2026-05-06 20:41 | 43.90431 | -107.83355 | 40101 ft | 516 kts | 223° |
| 2026-05-06 20:41 | 43.84771 | -107.89385 | 40098 ft | 516 kts | 222° |
| 2026-05-06 20:42 | 43.79073 | -107.95440 | 40102 ft | 516 kts | 222° |
| 2026-05-06 20:42 | 43.73373 | -108.01482 | 40103 ft | 516 kts | 222° |
| 2026-05-06 20:43 | 43.67664 | -108.07520 | 40096 ft | 516 kts | 222° |
| 2026-05-06 20:43 | 43.61951 | -108.13545 | 40093 ft | 517 kts | 222° |
| 2026-05-06 20:44 | 43.56238 | -108.19558 | 40092 ft | 517 kts | 222° |
| 2026-05-06 20:44 | 43.50519 | -108.25561 | 40090 ft | 516 kts | 222° |
| 2026-05-06 20:45 | 43.44800 | -108.31549 | 40093 ft | 517 kts | 222° |
| 2026-05-06 20:45 | 43.39023 | -108.37448 | 40101 ft | 518 kts | 221° |
| 2026-05-06 20:46 | 43.33210 | -108.43306 | 40101 ft | 518 kts | 221° |
| 2026-05-06 20:46 | 43.27403 | -108.49160 | 40101 ft | 518 kts | 221° |
| 2026-05-06 20:47 | 43.21594 | -108.55022 | 40098 ft | 518 kts | 221° |
| 2026-05-06 20:47 | 43.15813 | -108.60846 | 40100 ft | 519 kts | 221° |
| 2026-05-06 20:48 | 43.10001 | -108.66688 | 40101 ft | 519 kts | 221° |
| 2026-05-06 20:48 | 43.04179 | -108.72524 | 40100 ft | 519 kts | 221° |
| 2026-05-06 20:49 | 42.98358 | -108.78345 | 40106 ft | 518 kts | 221° |
| 2026-05-06 20:49 | 42.92540 | -108.84150 | 40107 ft | 518 kts | 221° |
| 2026-05-06 20:50 | 42.86723 | -108.89938 | 40103 ft | 517 kts | 221° |
| 2026-05-06 20:50 | 42.80903 | -108.95717 | 40111 ft | 516 kts | 221° |
| 2026-05-06 20:51 | 42.75098 | -109.01469 | 40119 ft | 516 kts | 221° |
| 2026-05-06 20:51 | 42.69292 | -109.07206 | 40133 ft | 516 kts | 221° |
| 2026-05-06 20:52 | 42.63484 | -109.12934 | 40144 ft | 516 kts | 221° |
| 2026-05-06 20:52 | 42.57666 | -109.18656 | 40155 ft | 517 kts | 220° |
| 2026-05-06 20:53 | 42.52824 | -109.23407 | 40159 ft | 517 kts | 220° |
| 2026-05-06 20:53 | 42.46044 | -109.30045 | 40162 ft | 517 kts | 220° |
| 2026-05-06 20:54 | 42.40205 | -109.35747 | 40161 ft | 517 kts | 220° |
| 2026-05-06 20:54 | 42.35350 | -109.40479 | 40165 ft | 517 kts | 220° |
| 2026-05-06 20:55 | 42.29506 | -109.46162 | 40163 ft | 517 kts | 220° |
| 2026-05-06 20:55 | 42.23663 | -109.51830 | 40165 ft | 517 kts | 220° |
| 2026-05-06 20:56 | 42.17818 | -109.57488 | 40168 ft | 516 kts | 220° |
| 2026-05-06 20:56 | 42.11985 | -109.63121 | 40169 ft | 516 kts | 220° |
| 2026-05-06 20:57 | 42.06150 | -109.68743 | 40168 ft | 516 kts | 220° |
| 2026-05-06 20:57 | 42.00310 | -109.74358 | 40171 ft | 516 kts | 220° |
| 2026-05-06 20:58 | 41.94456 | -109.79972 | 40172 ft | 516 kts | 220° |
| 2026-05-06 20:58 | 41.88608 | -109.85566 | 40173 ft | 516 kts | 220° |
| 2026-05-06 20:59 | 41.82782 | -109.91128 | 40174 ft | 517 kts | 220° |
| 2026-05-06 20:59 | 41.76918 | -109.96713 | 40176 ft | 518 kts | 220° |
| 2026-05-06 21:00 | 41.71041 | -110.02298 | 40177 ft | 518 kts | 220° |
| 2026-05-06 21:00 | 41.65150 | -110.07883 | 40177 ft | 518 kts | 220° |
| 2026-05-06 21:01 | 41.59264 | -110.13450 | 40191 ft | 518 kts | 220° |
| 2026-05-06 21:01 | 41.53375 | -110.19008 | 40211 ft | 518 kts | 219° |
| 2026-05-06 21:02 | 41.47473 | -110.24566 | 40234 ft | 518 kts | 219° |
| 2026-05-06 21:02 | 41.41582 | -110.30101 | 40244 ft | 518 kts | 219° |
| 2026-05-06 21:03 | 41.35690 | -110.35624 | 40246 ft | 518 kts | 219° |
| 2026-05-06 21:03 | 41.29802 | -110.41130 | 40251 ft | 517 kts | 219° |
| 2026-05-06 21:04 | 41.23906 | -110.46632 | 40230 ft | 517 kts | 219° |
| 2026-05-06 21:04 | 41.18016 | -110.52115 | 40212 ft | 517 kts | 219° |
| 2026-05-06 21:05 | 41.12162 | -110.57554 | 40198 ft | 516 kts | 219° |
| 2026-05-06 21:05 | 41.06273 | -110.63013 | 40185 ft | 516 kts | 219° |
| 2026-05-06 21:06 | 41.00381 | -110.68462 | 40185 ft | 516 kts | 219° |
| 2026-05-06 21:06 | 40.94489 | -110.73899 | 40185 ft | 516 kts | 219° |
| 2026-05-06 21:07 | 40.88600 | -110.79321 | 40178 ft | 516 kts | 219° |
| 2026-05-06 21:07 | 40.82705 | -110.84739 | 40173 ft | 516 kts | 219° |
| 2026-05-06 21:08 | 40.76847 | -110.90111 | 40163 ft | 516 kts | 219° |
| 2026-05-06 21:08 | 40.70953 | -110.95499 | 40165 ft | 515 kts | 218° |
| 2026-05-06 21:09 | 40.65059 | -111.00878 | 40152 ft | 515 kts | 218° |
| 2026-05-06 21:09 | 40.59168 | -111.06246 | 40155 ft | 515 kts | 218° |
| 2026-05-06 21:10 | 40.53270 | -111.11606 | 40159 ft | 515 kts | 218° |
| 2026-05-06 21:10 | 40.47370 | -111.16955 | 40168 ft | 515 kts | 218° |
| 2026-05-06 21:11 | 40.41472 | -111.22291 | 40169 ft | 515 kts | 218° |
| 2026-05-06 21:11 | 40.35573 | -111.27617 | 40166 ft | 514 kts | 218° |
| 2026-05-06 21:12 | 40.29708 | -111.32900 | 40162 ft | 514 kts | 218° |
| 2026-05-06 21:12 | 40.23809 | -111.38205 | 40142 ft | 514 kts | 218° |
| 2026-05-06 21:13 | 40.17912 | -111.43494 | 40165 ft | 514 kts | 218° |
| 2026-05-06 21:13 | 40.12007 | -111.48776 | 40174 ft | 513 kts | 218° |
| 2026-05-06 21:14 | 40.06144 | -111.54014 | 40182 ft | 513 kts | 218° |
| 2026-05-06 21:14 | 40.00238 | -111.59281 | 40171 ft | 513 kts | 218° |
| 2026-05-06 21:15 | 39.94335 | -111.64530 | 40150 ft | 513 kts | 218° |
| 2026-05-06 21:15 | 39.88431 | -111.69770 | 40120 ft | 513 kts | 218° |
| 2026-05-06 21:16 | 39.82517 | -111.75004 | 40083 ft | 513 kts | 218° |
| 2026-05-06 21:16 | 39.76603 | -111.80223 | 40066 ft | 514 kts | 218° |
| 2026-05-06 21:17 | 39.70721 | -111.85419 | 40073 ft | 514 kts | 218° |
| 2026-05-06 21:17 | 39.64802 | -111.90629 | 40078 ft | 514 kts | 218° |
| 2026-05-06 21:18 | 39.58873 | -111.95833 | 40079 ft | 514 kts | 217° |
| 2026-05-06 21:18 | 39.52953 | -112.01022 | 40071 ft | 514 kts | 217° |
| 2026-05-06 21:19 | 39.47022 | -112.06209 | 40070 ft | 514 kts | 217° |
| 2026-05-06 21:19 | 39.41090 | -112.11384 | 40093 ft | 514 kts | 217° |
| 2026-05-06 21:20 | 39.35155 | -112.16552 | 40111 ft | 514 kts | 217° |
| 2026-05-06 21:20 | 39.29263 | -112.21673 | 40120 ft | 513 kts | 217° |
| 2026-05-06 21:21 | 39.23341 | -112.26814 | 40122 ft | 513 kts | 217° |
| 2026-05-06 21:21 | 39.17405 | -112.31952 | 40139 ft | 513 kts | 217° |
| 2026-05-06 21:22 | 39.11474 | -112.37071 | 40169 ft | 513 kts | 217° |
| 2026-05-06 21:22 | 39.05533 | -112.42190 | 40190 ft | 513 kts | 217° |
| 2026-05-06 21:23 | 38.99599 | -112.47292 | 40194 ft | 513 kts | 217° |
| 2026-05-06 21:23 | 38.93659 | -112.52390 | 40182 ft | 513 kts | 217° |
| 2026-05-06 21:24 | 38.87712 | -112.57485 | 40159 ft | 513 kts | 217° |
| 2026-05-06 21:24 | 38.81809 | -112.62531 | 40126 ft | 513 kts | 217° |
| 2026-05-06 21:25 | 38.75866 | -112.67601 | 40096 ft | 513 kts | 216° |
| 2026-05-06 21:25 | 38.69919 | -112.72664 | 40083 ft | 513 kts | 216° |
| 2026-05-06 21:26 | 38.63972 | -112.77718 | 40108 ft | 513 kts | 216° |
| 2026-05-06 21:26 | 38.58014 | -112.82769 | 40138 ft | 513 kts | 216° |
| 2026-05-06 21:27 | 38.52103 | -112.87772 | 40162 ft | 513 kts | 216° |
| 2026-05-06 21:27 | 38.46152 | -112.92798 | 40183 ft | 513 kts | 216° |
| 2026-05-06 21:28 | 38.40198 | -112.97816 | 40186 ft | 513 kts | 216° |
| 2026-05-06 21:28 | 38.33950 | -113.02224 | 40194 ft | 516 kts | 203° |
| 2026-05-06 21:29 | 38.27219 | -113.05504 | 40156 ft | 517 kts | 202° |
| 2026-05-06 21:29 | 38.20520 | -113.08689 | 40118 ft | 517 kts | 202° |
| 2026-05-06 21:30 | 38.13773 | -113.11885 | 40076 ft | 517 kts | 202° |
| 2026-05-06 21:30 | 38.07035 | -113.15070 | 40036 ft | 517 kts | 201° |
| 2026-05-06 21:31 | 38.00292 | -113.18251 | 40059 ft | 517 kts | 201° |
| 2026-05-06 21:31 | 37.93541 | -113.21429 | 40090 ft | 517 kts | 201° |
| 2026-05-06 21:32 | 37.86805 | -113.24594 | 40115 ft | 516 kts | 201° |
| 2026-05-06 21:32 | 37.76700 | -113.29331 | 39931 ft | 517 kts | 201° |
| 2026-05-06 21:33 | 37.73345 | -113.30900 | 39708 ft | 509 kts | 201° |
| 2026-05-06 21:33 | 37.70033 | -113.32447 | 39266 ft | 507 kts | 201° |
| 2026-05-06 21:33 | 37.66710 | -113.34000 | 38561 ft | 511 kts | 201° |
| 2026-05-06 21:33 | 37.63362 | -113.35562 | 37689 ft | 516 kts | 201° |
| 2026-05-06 21:34 | 37.60018 | -113.37120 | 36771 ft | 522 kts | 200° |
| 2026-05-06 21:34 | 37.56607 | -113.38708 | 36025 ft | 524 kts | 200° |
| 2026-05-06 21:34 | 37.53182 | -113.40301 | 35336 ft | 525 kts | 200° |
| 2026-05-06 21:34 | 37.49758 | -113.41892 | 34804 ft | 522 kts | 200° |
| 2026-05-06 21:35 | 37.46359 | -113.43470 | 34264 ft | 519 kts | 200° |
| 2026-05-06 21:35 | 37.42973 | -113.45039 | 33703 ft | 517 kts | 200° |
| 2026-05-06 21:35 | 37.39605 | -113.46599 | 33154 ft | 513 kts | 200° |
| 2026-05-06 21:35 | 37.36272 | -113.48142 | 32652 ft | 509 kts | 200° |
| 2026-05-06 21:36 | 37.32952 | -113.49678 | 32134 ft | 506 kts | 200° |
| 2026-05-06 21:36 | 37.29667 | -113.51195 | 31650 ft | 502 kts | 200° |
| 2026-05-06 21:36 | 37.26431 | -113.52688 | 31158 ft | 499 kts | 200° |
| 2026-05-06 21:36 | 37.23198 | -113.54197 | 30654 ft | 495 kts | 202° |
| 2026-05-06 21:37 | 37.20067 | -113.55973 | 30159 ft | 492 kts | 206° |
| 2026-05-06 21:37 | 37.16995 | -113.57849 | 29611 ft | 488 kts | 206° |
| 2026-05-06 21:37 | 37.13951 | -113.59688 | 29124 ft | 483 kts | 206° |
| 2026-05-06 21:37 | 37.10926 | -113.61491 | 28639 ft | 479 kts | 205° |
| 2026-05-06 21:38 | 37.07928 | -113.63262 | 28158 ft | 475 kts | 205° |
| 2026-05-06 21:38 | 37.04949 | -113.65011 | 27667 ft | 471 kts | 205° |
| 2026-05-06 21:38 | 37.01989 | -113.66743 | 27180 ft | 467 kts | 205° |
| 2026-05-06 21:38 | 36.99066 | -113.68449 | 26695 ft | 464 kts | 205° |
| 2026-05-06 21:39 | 36.96150 | -113.70149 | 26211 ft | 460 kts | 205° |
| 2026-05-06 21:39 | 36.93250 | -113.71843 | 25698 ft | 458 kts | 205° |
| 2026-05-06 21:39 | 36.90373 | -113.73526 | 25223 ft | 455 kts | 205° |
| 2026-05-06 21:39 | 36.87513 | -113.75195 | 24719 ft | 453 kts | 205° |
| 2026-05-06 21:40 | 36.84665 | -113.76854 | 24225 ft | 450 kts | 205° |
| 2026-05-06 21:40 | 36.81830 | -113.78505 | 23723 ft | 448 kts | 205° |
| 2026-05-06 21:40 | 36.79011 | -113.80145 | 23190 ft | 446 kts | 205° |
| 2026-05-06 21:40 | 36.76209 | -113.81774 | 22662 ft | 442 kts | 205° |
| 2026-05-06 21:41 | 36.73440 | -113.83382 | 22182 ft | 437 kts | 205° |
| 2026-05-06 21:41 | 36.71619 | -113.84440 | 21860 ft | 434 kts | 205° |
| 2026-05-06 21:41 | 36.68025 | -113.86527 | 21227 ft | 427 kts | 205° |
| 2026-05-06 21:41 | 36.65340 | -113.88084 | 20753 ft | 423 kts | 205° |
| 2026-05-06 21:42 | 36.62684 | -113.89624 | 20278 ft | 419 kts | 205° |
| 2026-05-06 21:42 | 36.60085 | -113.91219 | 19807 ft | 415 kts | 211° |
| 2026-05-06 21:42 | 36.57866 | -113.93458 | 19347 ft | 407 kts | 230° |
| 2026-05-06 21:42 | 36.56645 | -113.95276 | 19019 ft | 404 kts | 234° |
| 2026-05-06 21:43 | 36.54967 | -113.98009 | 18583 ft | 400 kts | 235° |
| 2026-05-06 21:43 | 36.53291 | -114.00761 | 18102 ft | 397 kts | 235° |
| 2026-05-06 21:43 | 36.51628 | -114.03472 | 17600 ft | 393 kts | 234° |
| 2026-05-06 21:43 | 36.49973 | -114.06155 | 17130 ft | 389 kts | 234° |
| 2026-05-06 21:44 | 36.48335 | -114.08801 | 16668 ft | 383 kts | 234° |
| 2026-05-06 21:44 | 36.46716 | -114.11410 | 16243 ft | 380 kts | 234° |
| 2026-05-06 21:44 | 36.45129 | -114.13961 | 16107 ft | 367 kts | 234° |
| 2026-05-06 21:44 | 36.43598 | -114.16419 | 15991 ft | 354 kts | 234° |
| 2026-05-06 21:45 | 36.42115 | -114.18800 | 15818 ft | 344 kts | 234° |
| 2026-05-06 21:45 | 36.40652 | -114.21147 | 15435 ft | 342 kts | 234° |
| 2026-05-06 21:45 | 36.39205 | -114.23469 | 15075 ft | 339 kts | 234° |
| 2026-05-06 21:45 | 36.37758 | -114.25770 | 14736 ft | 337 kts | 233° |
| 2026-05-06 21:46 | 36.36304 | -114.28043 | 14393 ft | 335 kts | 233° |
| 2026-05-06 21:46 | 36.34856 | -114.30306 | 14054 ft | 334 kts | 233° |
| 2026-05-06 21:46 | 36.33414 | -114.32560 | 13702 ft | 333 kts | 233° |
| 2026-05-06 21:46 | 36.31977 | -114.34809 | 13332 ft | 331 kts | 233° |
| 2026-05-06 21:47 | 36.30574 | -114.37004 | 12984 ft | 328 kts | 233° |
| 2026-05-06 21:47 | 36.29165 | -114.39206 | 12634 ft | 325 kts | 234° |
| 2026-05-06 21:47 | 36.27763 | -114.41397 | 12274 ft | 323 kts | 234° |
| 2026-05-06 21:47 | 36.26374 | -114.43568 | 11914 ft | 320 kts | 234° |
| 2026-05-06 21:48 | 36.25000 | -114.45715 | 11547 ft | 317 kts | 234° |
| 2026-05-06 21:48 | 36.23622 | -114.47843 | 11178 ft | 315 kts | 233° |
| 2026-05-06 21:48 | 36.22245 | -114.49944 | 10817 ft | 313 kts | 233° |
| 2026-05-06 21:48 | 36.20876 | -114.52036 | 10409 ft | 312 kts | 233° |
| 2026-05-06 21:49 | 36.19514 | -114.54120 | 10037 ft | 310 kts | 234° |
| 2026-05-06 21:49 | 36.18163 | -114.56193 | 9650 ft | 309 kts | 234° |
| 2026-05-06 21:49 | 36.16813 | -114.58257 | 9250 ft | 306 kts | 234° |
| 2026-05-06 21:49 | 36.15486 | -114.60284 | 8894 ft | 301 kts | 234° |
| 2026-05-06 21:50 | 36.14282 | -114.62369 | 8724 ft | 297 kts | 242° |
| 2026-05-06 21:50 | 36.13235 | -114.64575 | 8592 ft | 296 kts | 243° |
| 2026-05-06 21:50 | 36.12215 | -114.66763 | 8462 ft | 288 kts | 243° |
| 2026-05-06 21:50 | 36.11225 | -114.68822 | 8330 ft | 267 kts | 242° |
| 2026-05-06 21:51 | 36.10261 | -114.70684 | 8202 ft | 253 kts | 239° |
| 2026-05-06 21:51 | 36.09288 | -114.72480 | 8107 ft | 249 kts | 239° |
| 2026-05-06 21:51 | 36.08342 | -114.74270 | 8093 ft | 248 kts | 243° |
| 2026-05-06 21:51 | 36.07675 | -114.76217 | 7945 ft | 244 kts | 258° |
| 2026-05-06 21:52 | 36.07393 | -114.78242 | 7667 ft | 240 kts | 269° |
| 2026-05-06 21:52 | 36.07355 | -114.80330 | 7327 ft | 242 kts | 273° |
| 2026-05-06 21:52 | 36.07373 | -114.82428 | 6930 ft | 246 kts | 272° |
| 2026-05-06 21:52 | 36.07371 | -114.84528 | 6553 ft | 249 kts | 271° |
| 2026-05-06 21:53 | 36.07363 | -114.86666 | 6195 ft | 249 kts | 271° |
| 2026-05-06 21:53 | 36.07367 | -114.88813 | 5856 ft | 249 kts | 271° |
| 2026-05-06 21:53 | 36.07367 | -114.90944 | 5555 ft | 245 kts | 271° |
| 2026-05-06 21:53 | 36.07365 | -114.92977 | 5274 ft | 224 kts | 271° |
| 2026-05-06 21:54 | 36.07366 | -114.94791 | 4990 ft | 200 kts | 271° |
| 2026-05-06 21:54 | 36.07366 | -114.96425 | 4766 ft | 181 kts | 271° |
| 2026-05-06 21:54 | 36.07366 | -114.97930 | 4524 ft | 168 kts | 270° |
| 2026-05-06 21:54 | 36.07366 | -114.99316 | 4322 ft | 155 kts | 270° |
| 2026-05-06 21:55 | 36.07366 | -115.00621 | 4092 ft | 148 kts | 270° |
| 2026-05-06 21:55 | 36.07358 | -115.01883 | 3883 ft | 146 kts | 269° |
| 2026-05-06 21:55 | 36.07340 | -115.03139 | 3761 ft | 148 kts | 269° |
| 2026-05-06 21:55 | 36.07342 | -115.04414 | 3585 ft | 148 kts | 272° |
| 2026-05-06 21:56 | 36.07357 | -115.05690 | 3406 ft | 148 kts | 271° |
| 2026-05-06 21:56 | 36.07352 | -115.06965 | 3200 ft | 148 kts | 269° |
| 2026-05-06 21:56 | 36.07338 | -115.08230 | 2979 ft | 147 kts | 270° |
| 2026-05-06 21:56 | 36.07359 | -115.09493 | 2728 ft | 147 kts | 273° |
| 2026-05-06 21:57 | 36.07372 | -115.10752 | 2533 ft | 147 kts | 271° |
| 2026-05-06 21:57 | 36.07361 | -115.12026 | 2312 ft | 148 kts | 271° |
| 2026-05-06 21:57 | 36.07367 | -115.13300 | 2195 ft | 147 kts | 269° |
| 2026-05-06 21:57 | 36.07367 | -115.14433 | 2198 ft | 117 kts | 270° |
| 2026-05-06 21:58 | 36.07364 | -115.15134 | 2193 ft | 35 kts | 271° |
| 2026-05-06 21:58 | 36.07402 | -115.15347 | 2197 ft | 19 kts | 292° |
| 2026-05-06 21:58 | 36.07464 | -115.15496 | 2195 ft | 18 kts | 298° |
| 2026-05-06 21:58 | 36.07540 | -115.15619 | 2198 ft | 18 kts | 310° |
| 2026-05-06 21:59 | 36.07629 | -115.15735 | 2200 ft | 19 kts | 313° |
| 2026-05-06 21:59 | 36.07711 | -115.15817 | 2197 ft | 13 kts | 337° |
| 2026-05-06 21:59 | 36.07789 | -115.15811 | 2196 ft | 10 kts | 35° |
| 2026-05-06 21:59 | 36.07805 | -115.15727 | 2196 ft | 11 kts | 90° |
| 2026-05-06 22:00 | 36.07806 | -115.15621 | 2194 ft | 13 kts | 90° |
| 2026-05-06 22:00 | 36.07805 | -115.15498 | 2195 ft | 13 kts | 90° |
| 2026-05-06 22:00 | 36.07805 | -115.15412 | 2195 ft | 11 kts | 90° |
| 2026-05-06 22:00 | 36.07805 | -115.15344 | 2195 ft | 8 kts | 90° |
| 2026-05-06 22:01 | 36.07805 | -115.15263 | 2195 ft | 11 kts | 90° |
| 2026-05-06 22:01 | 36.07805 | -115.15160 | 2195 ft | 13 kts | 90° |
| 2026-05-06 22:01 | 36.07800 | -115.15040 | 2198 ft | 15 kts | 94° |
| 2026-05-06 22:01 | 36.07792 | -115.14901 | 2195 ft | 17 kts | 94° |
| 2026-05-06 22:02 | 36.07790 | -115.14807 | 2195 ft | 11 kts | 92° |
| 2026-05-06 22:02 | 36.07782 | -115.14703 | 2195 ft | 13 kts | 96° |
| 2026-05-06 22:02 | 36.07771 | -115.14579 | 2197 ft | 13 kts | 95° |
| 2026-05-06 22:02 | 36.07762 | -115.14467 | 2195 ft | 14 kts | 95° |
| 2026-05-06 22:03 | 36.07755 | -115.14354 | 2194 ft | 14 kts | 92° |
| 2026-05-06 22:03 | 36.07761 | -115.14271 | 2198 ft | 7 kts | 63° |
| 2026-05-06 22:03 | 36.07807 | -115.14244 | 2206 ft | 8 kts | 11° |
| 2026-05-06 22:03 | 36.07873 | -115.14242 | 2195 ft | 11 kts | 0° |
| 2026-05-06 22:04 | 36.07958 | -115.14241 | 2197 ft | 13 kts | 0° |
| 2026-05-06 22:04 | 36.08059 | -115.14240 | 2195 ft | 16 kts | 0° |
| 2026-05-06 22:04 | 36.08171 | -115.14241 | 2195 ft | 15 kts | 359° |
| 2026-05-06 22:04 | 36.08252 | -115.14222 | 2195 ft | 13 kts | 23° |
| 2026-05-06 22:05 | 36.08315 | -115.14168 | 2196 ft | 8 kts | 42° |
| 2026-05-06 22:05 | 36.08362 | -115.14112 | 2196 ft | 11 kts | 45° |
| 2026-05-06 22:05 | 36.08418 | -115.14041 | 2197 ft | 10 kts | 50° |
| 2026-05-06 22:05 | 36.08438 | -115.13993 | 2195 ft | 0 kts | 71° |
| 2026-05-06 22:06 | 36.08438 | -115.13989 | 2195 ft | 3 kts | 79° |
| 2026-05-06 22:07 | 36.08423 | -115.13925 | 2196 ft | 11 kts | 105° |
| 2026-05-06 22:07 | 36.08415 | -115.13862 | 2197 ft | 1 kts | 89° |
| 2026-05-06 22:07 | 36.08415 | -115.13860 | 2197 ft | 0 kts | 89° |
| 2026-05-06 22:08 | 36.08415 | -115.13858 | 2194 ft | 2 kts | 89° |
| 2026-05-06 22:09 | 36.08429 | -115.13793 | 2195 ft | 11 kts | 66° |
| 2026-05-06 22:09 | 36.08443 | -115.13695 | 2194 ft | 13 kts | 89° |
| 2026-05-06 22:09 | 36.08444 | -115.13578 | 2194 ft | 15 kts | 89° |
| 2026-05-06 22:09 | 36.08446 | -115.13476 | 2194 ft | 8 kts | 81° |
| 2026-05-06 22:10 | 36.08484 | -115.13444 | 2197 ft | 7 kts | 5° |
| 2026-05-06 22:10 | 36.08523 | -115.13443 | 2196 ft | 2 kts | 0° |
| 2026-05-06 22:10 | 36.08532 | -115.13443 | 2196 ft | 0 kts | 0° |